<?xml version="1.0" encoding="UTF-8" standalone="no" ?>
<gpx xmlns="http://www.topografix.com/GPX/1/1" xmlns:xsi="http://www.w3.org/2001/XMLSchema-instance" xsi:schemaLocation="http://www.topografix.com/GPX/1/1 http://www.topografix.com/GPX/1/1/gpx.xsd" version="1.1" creator="VisuGPX - https://www.visugpx.com">
  <metadata>
    <name>Arras randouillette</name>
    <desc><![CDATA[préparation
]]></desc>
  </metadata>
  <trk>
    <name><![CDATA[randogps62-284]]></name>
    <trkseg>
      <trkpt lat="50.28741" lon="2.76165">
        <ele>71.76</ele>
        <time>2018-08-25T13:06:33Z</time>
      </trkpt>
      <trkpt lat="50.2871" lon="2.76152">
        <ele>63.214844</ele>
      </trkpt>
      <trkpt lat="50.28691" lon="2.76141">
        <ele>63.25</ele>
      </trkpt>
      <trkpt lat="50.28681" lon="2.76128">
        <ele>63.28125</ele>
      </trkpt>
      <trkpt lat="50.28678" lon="2.76112">
        <ele>63.332031</ele>
      </trkpt>
      <trkpt lat="50.2866" lon="2.76121">
        <ele>63.023438</ele>
      </trkpt>
      <trkpt lat="50.28622" lon="2.76145">
        <ele>63.421875</ele>
      </trkpt>
      <trkpt lat="50.28573" lon="2.76179">
        <ele>64.402344</ele>
      </trkpt>
      <trkpt lat="50.2854" lon="2.76212">
        <ele>64.148438</ele>
      </trkpt>
      <trkpt lat="50.28519" lon="2.76232">
        <ele>63.894531</ele>
      </trkpt>
      <trkpt lat="50.28498" lon="2.76266">
        <ele>63.28125</ele>
      </trkpt>
      <trkpt lat="50.28485" lon="2.76291">
        <ele>63</ele>
      </trkpt>
      <trkpt lat="50.28472" lon="2.76276">
        <ele>63</ele>
      </trkpt>
      <trkpt lat="50.28457" lon="2.76261">
        <ele>63.28125</ele>
      </trkpt>
      <trkpt lat="50.28428" lon="2.76211">
        <ele>64.957031</ele>
      </trkpt>
      <trkpt lat="50.28392" lon="2.76154">
        <ele>69.179688</ele>
      </trkpt>
      <trkpt lat="50.28358" lon="2.761">
        <ele>68.324219</ele>
      </trkpt>
      <trkpt lat="50.28337" lon="2.76135">
        <ele>68.667969</ele>
      </trkpt>
      <trkpt lat="50.28329" lon="2.7612">
        <ele>71.76</ele>
        <time>2018-08-25T13:06:34Z</time>
      </trkpt>
      <trkpt lat="50.2833" lon="2.76117">
        <ele>71.27</ele>
        <time>2018-08-25T13:06:49Z</time>
      </trkpt>
      <trkpt lat="50.28329" lon="2.76093">
        <ele>71.76</ele>
        <time>2018-08-25T13:07:03Z</time>
      </trkpt>
      <trkpt lat="50.28329" lon="2.7609">
        <ele>70.79</ele>
        <time>2018-08-25T13:07:05Z</time>
      </trkpt>
      <trkpt lat="50.28328" lon="2.76076">
        <ele>70.79</ele>
        <time>2018-08-25T13:07:13Z</time>
      </trkpt>
      <trkpt lat="50.28327" lon="2.76065">
        <ele>70.79</ele>
        <time>2018-08-25T13:07:19Z</time>
      </trkpt>
      <trkpt lat="50.28326" lon="2.76035">
        <ele>70.79</ele>
        <time>2018-08-25T13:07:34Z</time>
      </trkpt>
      <trkpt lat="50.28325" lon="2.76018">
        <ele>71.76</ele>
        <time>2018-08-25T13:07:43Z</time>
      </trkpt>
      <trkpt lat="50.28323" lon="2.75988">
        <ele>72.24</ele>
        <time>2018-08-25T13:07:59Z</time>
      </trkpt>
      <trkpt lat="50.28319" lon="2.75965">
        <ele>72.72</ele>
        <time>2018-08-25T13:08:12Z</time>
      </trkpt>
      <trkpt lat="50.28315" lon="2.75952">
        <ele>72.72</ele>
        <time>2018-08-25T13:08:24Z</time>
      </trkpt>
      <trkpt lat="50.28309" lon="2.75935">
        <ele>73.2</ele>
        <time>2018-08-25T13:08:37Z</time>
      </trkpt>
      <trkpt lat="50.28307" lon="2.75931">
        <ele>73.2</ele>
        <time>2018-08-25T13:08:40Z</time>
      </trkpt>
      <trkpt lat="50.28292" lon="2.75902">
        <ele>73.2</ele>
        <time>2018-08-25T13:09:01Z</time>
      </trkpt>
      <trkpt lat="50.28276" lon="2.75869">
        <ele>74.16</ele>
        <time>2018-08-25T13:09:20Z</time>
      </trkpt>
      <trkpt lat="50.28263" lon="2.75838">
        <ele>74.16</ele>
        <time>2018-08-25T13:09:39Z</time>
      </trkpt>
      <trkpt lat="50.28259" lon="2.75822">
        <ele>74.16</ele>
        <time>2018-08-25T13:09:55Z</time>
      </trkpt>
      <trkpt lat="50.28255" lon="2.75757">
        <ele>70.31</ele>
        <time>2018-08-25T13:10:35Z</time>
      </trkpt>
      <trkpt lat="50.28254" lon="2.75741">
        <ele>68.87</ele>
        <time>2018-08-25T13:10:58Z</time>
      </trkpt>
      <trkpt lat="50.28252" lon="2.75736">
        <ele>68.87</ele>
        <time>2018-08-25T13:11:10Z</time>
      </trkpt>
      <trkpt lat="50.28234" lon="2.75729">
        <ele>68.39</ele>
        <time>2018-08-25T13:11:32Z</time>
      </trkpt>
      <trkpt lat="50.28213" lon="2.7573">
        <ele>67.91</ele>
        <time>2018-08-25T13:11:56Z</time>
      </trkpt>
      <trkpt lat="50.28202" lon="2.75728">
        <ele>66.95</ele>
        <time>2018-08-25T13:12:16Z</time>
      </trkpt>
      <trkpt lat="50.28187" lon="2.75735">
        <ele>66.95</ele>
        <time>2018-08-25T13:12:38Z</time>
      </trkpt>
      <trkpt lat="50.28189" lon="2.75728">
        <ele>66.95</ele>
        <time>2018-08-25T13:12:55Z</time>
      </trkpt>
      <trkpt lat="50.28209" lon="2.75717">
        <ele>67.91</ele>
        <time>2018-08-25T13:13:17Z</time>
      </trkpt>
      <trkpt lat="50.28218" lon="2.75694">
        <ele>69.35</ele>
        <time>2018-08-25T13:13:37Z</time>
      </trkpt>
      <trkpt lat="50.28214" lon="2.75676">
        <ele>70.31</ele>
        <time>2018-08-25T13:13:57Z</time>
      </trkpt>
      <trkpt lat="50.28209" lon="2.75662">
        <ele>71.27</ele>
        <time>2018-08-25T13:14:17Z</time>
      </trkpt>
      <trkpt lat="50.28193" lon="2.75633">
        <ele>72.72</ele>
        <time>2018-08-25T13:14:40Z</time>
      </trkpt>
      <trkpt lat="50.28181" lon="2.7562">
        <ele>73.68</ele>
        <time>2018-08-25T13:15:01Z</time>
      </trkpt>
      <trkpt lat="50.28165" lon="2.7564">
        <ele>72.24</ele>
        <time>2018-08-25T13:15:21Z</time>
      </trkpt>
      <trkpt lat="50.28133" lon="2.75642">
        <ele>71.27</ele>
        <time>2018-08-25T13:15:44Z</time>
      </trkpt>
      <trkpt lat="50.2811" lon="2.75641">
        <ele>70.79</ele>
        <time>2018-08-25T13:16:04Z</time>
      </trkpt>
      <trkpt lat="50.281" lon="2.75636">
        <ele>70.79</ele>
        <time>2018-08-25T13:16:12Z</time>
      </trkpt>
      <trkpt lat="50.28072" lon="2.7564">
        <ele>70.31</ele>
        <time>2018-08-25T13:16:31Z</time>
      </trkpt>
      <trkpt lat="50.28073" lon="2.75679">
        <ele>70.31</ele>
        <time>2018-08-25T13:16:51Z</time>
      </trkpt>
      <trkpt lat="50.28073" lon="2.75729">
        <ele>68.87</ele>
        <time>2018-08-25T13:17:13Z</time>
      </trkpt>
      <trkpt lat="50.28073" lon="2.75759">
        <ele>67.91</ele>
        <time>2018-08-25T13:17:38Z</time>
      </trkpt>
      <trkpt lat="50.28065" lon="2.75798">
        <ele>67.91</ele>
        <time>2018-08-25T13:17:56Z</time>
      </trkpt>
      <trkpt lat="50.28059" lon="2.75817">
        <ele>67.43</ele>
        <time>2018-08-25T13:18:16Z</time>
      </trkpt>
      <trkpt lat="50.28051" lon="2.75841">
        <ele>66.47</ele>
        <time>2018-08-25T13:18:36Z</time>
      </trkpt>
      <trkpt lat="50.28028" lon="2.75862">
        <ele>64.55</ele>
        <time>2018-08-25T13:19:00Z</time>
      </trkpt>
      <trkpt lat="50.28019" lon="2.75875">
        <ele>64.07</ele>
        <time>2018-08-25T13:19:15Z</time>
      </trkpt>
      <trkpt lat="50.2801" lon="2.75899">
        <ele>63.58</ele>
        <time>2018-08-25T13:19:34Z</time>
      </trkpt>
      <trkpt lat="50.2802" lon="2.7593">
        <ele>62.62</ele>
        <time>2018-08-25T13:19:54Z</time>
      </trkpt>
      <trkpt lat="50.28025" lon="2.75982">
        <ele>62.62</ele>
        <time>2018-08-25T13:20:15Z</time>
      </trkpt>
      <trkpt lat="50.28024" lon="2.76003">
        <ele>62.14</ele>
        <time>2018-08-25T13:20:33Z</time>
      </trkpt>
      <trkpt lat="50.28031" lon="2.76037">
        <ele>61.18</ele>
        <time>2018-08-25T13:20:55Z</time>
      </trkpt>
      <trkpt lat="50.28041" lon="2.76027">
        <ele>60.7</ele>
        <time>2018-08-25T13:21:08Z</time>
      </trkpt>
      <trkpt lat="50.2805" lon="2.76009">
        <ele>60.7</ele>
        <time>2018-08-25T13:21:22Z</time>
      </trkpt>
      <trkpt lat="50.28065" lon="2.76018">
        <ele>59.26</ele>
        <time>2018-08-25T13:21:40Z</time>
      </trkpt>
      <trkpt lat="50.28071" lon="2.76034">
        <ele>60.7</ele>
        <time>2018-08-25T13:21:50Z</time>
      </trkpt>
      <trkpt lat="50.28079" lon="2.76058">
        <ele>60.7</ele>
        <time>2018-08-25T13:22:11Z</time>
      </trkpt>
      <trkpt lat="50.28071" lon="2.76089">
        <ele>60.22</ele>
        <time>2018-08-25T13:22:33Z</time>
      </trkpt>
      <trkpt lat="50.28063" lon="2.76119">
        <ele>60.22</ele>
        <time>2018-08-25T13:22:52Z</time>
      </trkpt>
      <trkpt lat="50.28059" lon="2.76145">
        <ele>59.26</ele>
        <time>2018-08-25T13:23:16Z</time>
      </trkpt>
      <trkpt lat="50.28059" lon="2.76185">
        <ele>58.78</ele>
        <time>2018-08-25T13:23:36Z</time>
      </trkpt>
      <trkpt lat="50.2808" lon="2.76196">
        <ele>58.3</ele>
        <time>2018-08-25T13:23:58Z</time>
      </trkpt>
      <trkpt lat="50.28105" lon="2.76207">
        <ele>58.3</ele>
        <time>2018-08-25T13:24:19Z</time>
      </trkpt>
      <trkpt lat="50.28129" lon="2.7622">
        <ele>58.3</ele>
        <time>2018-08-25T13:24:42Z</time>
      </trkpt>
      <trkpt lat="50.28148" lon="2.7623">
        <ele>59.26</ele>
        <time>2018-08-25T13:25:00Z</time>
      </trkpt>
      <trkpt lat="50.28159" lon="2.76254">
        <ele>61.18</ele>
        <time>2018-08-25T13:25:21Z</time>
      </trkpt>
      <trkpt lat="50.28166" lon="2.76256">
        <ele>60.7</ele>
        <time>2018-08-25T13:25:42Z</time>
      </trkpt>
      <trkpt lat="50.28159" lon="2.76282">
        <ele>60.7</ele>
        <time>2018-08-25T13:25:59Z</time>
      </trkpt>
      <trkpt lat="50.28161" lon="2.76299">
        <ele>59.26</ele>
        <time>2018-08-25T13:26:08Z</time>
      </trkpt>
      <trkpt lat="50.28164" lon="2.7634">
        <ele>59.26</ele>
        <time>2018-08-25T13:26:29Z</time>
      </trkpt>
      <trkpt lat="50.28166" lon="2.7638">
        <ele>59.26</ele>
        <time>2018-08-25T13:26:49Z</time>
      </trkpt>
      <trkpt lat="50.28171" lon="2.76402">
        <ele>59.26</ele>
        <time>2018-08-25T13:27:08Z</time>
      </trkpt>
      <trkpt lat="50.28187" lon="2.764">
        <ele>59.26</ele>
        <time>2018-08-25T13:27:26Z</time>
      </trkpt>
      <trkpt lat="50.2821" lon="2.76392">
        <ele>58.78</ele>
        <time>2018-08-25T13:27:47Z</time>
      </trkpt>
      <trkpt lat="50.28221" lon="2.76385">
        <ele>58.78</ele>
        <time>2018-08-25T13:28:08Z</time>
      </trkpt>
      <trkpt lat="50.28229" lon="2.76378">
        <ele>58.3</ele>
        <time>2018-08-25T13:28:31Z</time>
      </trkpt>
      <trkpt lat="50.28263" lon="2.76364">
        <ele>58.3</ele>
        <time>2018-08-25T13:28:54Z</time>
      </trkpt>
      <trkpt lat="50.28286" lon="2.76359">
        <ele>56.86</ele>
        <time>2018-08-25T13:29:14Z</time>
      </trkpt>
      <trkpt lat="50.28304" lon="2.76395">
        <ele>56.37</ele>
        <time>2018-08-25T13:29:36Z</time>
      </trkpt>
      <trkpt lat="50.28312" lon="2.76412">
        <ele>56.37</ele>
        <time>2018-08-25T13:29:58Z</time>
      </trkpt>
      <trkpt lat="50.28314" lon="2.76432">
        <ele>56.37</ele>
        <time>2018-08-25T13:30:18Z</time>
      </trkpt>
      <trkpt lat="50.28288" lon="2.76454">
        <ele>55.41</ele>
        <time>2018-08-25T13:30:40Z</time>
      </trkpt>
      <trkpt lat="50.28266" lon="2.76468">
        <ele>55.41</ele>
        <time>2018-08-25T13:31:01Z</time>
      </trkpt>
      <trkpt lat="50.2824" lon="2.76476">
        <ele>55.41</ele>
        <time>2018-08-25T13:31:23Z</time>
      </trkpt>
      <trkpt lat="50.28238" lon="2.76477">
        <ele>55.41</ele>
        <time>2018-08-25T13:31:25Z</time>
      </trkpt>
      <trkpt lat="50.28207" lon="2.76482">
        <ele>55.41</ele>
        <time>2018-08-25T13:31:49Z</time>
      </trkpt>
      <trkpt lat="50.28182" lon="2.7649">
        <ele>55.41</ele>
        <time>2018-08-25T13:32:09Z</time>
      </trkpt>
      <trkpt lat="50.28163" lon="2.765">
        <ele>54.45</ele>
        <time>2018-08-25T13:32:26Z</time>
      </trkpt>
      <trkpt lat="50.28141" lon="2.76486">
        <ele>53.97</ele>
        <time>2018-08-25T13:32:47Z</time>
      </trkpt>
      <trkpt lat="50.28132" lon="2.76457">
        <ele>53.97</ele>
        <time>2018-08-25T13:33:10Z</time>
      </trkpt>
      <trkpt lat="50.28129" lon="2.76412">
        <ele>53.49</ele>
        <time>2018-08-25T13:33:34Z</time>
      </trkpt>
      <trkpt lat="50.28129" lon="2.7639">
        <ele>53.49</ele>
        <time>2018-08-25T13:33:44Z</time>
      </trkpt>
      <trkpt lat="50.28126" lon="2.76349">
        <ele>53.49</ele>
        <time>2018-08-25T13:34:05Z</time>
      </trkpt>
      <trkpt lat="50.28118" lon="2.76315">
        <ele>53.49</ele>
        <time>2018-08-25T13:34:24Z</time>
      </trkpt>
      <trkpt lat="50.28106" lon="2.76289">
        <ele>53.49</ele>
        <time>2018-08-25T13:34:42Z</time>
      </trkpt>
      <trkpt lat="50.28107" lon="2.76288">
        <ele>53.49</ele>
        <time>2018-08-25T13:35:00Z</time>
      </trkpt>
      <trkpt lat="50.28093" lon="2.7628">
        <ele>53.49</ele>
        <time>2018-08-25T13:35:19Z</time>
      </trkpt>
      <trkpt lat="50.28085" lon="2.76283">
        <ele>54.93</ele>
        <time>2018-08-25T13:35:36Z</time>
      </trkpt>
      <trkpt lat="50.28076" lon="2.76275">
        <ele>55.41</ele>
        <time>2018-08-25T13:36:04Z</time>
      </trkpt>
      <trkpt lat="50.28064" lon="2.76266">
        <ele>53.97</ele>
        <time>2018-08-25T13:36:14Z</time>
      </trkpt>
      <trkpt lat="50.28041" lon="2.76258">
        <ele>53.97</ele>
        <time>2018-08-25T13:36:35Z</time>
      </trkpt>
      <trkpt lat="50.28018" lon="2.76247">
        <ele>53.97</ele>
        <time>2018-08-25T13:36:56Z</time>
      </trkpt>
      <trkpt lat="50.28002" lon="2.76225">
        <ele>53.97</ele>
        <time>2018-08-25T13:37:14Z</time>
      </trkpt>
      <trkpt lat="50.27996" lon="2.76192">
        <ele>53.49</ele>
        <time>2018-08-25T13:37:32Z</time>
      </trkpt>
      <trkpt lat="50.27992" lon="2.76185">
        <ele>54.93</ele>
        <time>2018-08-25T13:37:43Z</time>
      </trkpt>
      <trkpt lat="50.28003" lon="2.76175">
        <ele>53.49</ele>
        <time>2018-08-25T13:38:00Z</time>
      </trkpt>
      <trkpt lat="50.28016" lon="2.76144">
        <ele>53.01</ele>
        <time>2018-08-25T13:38:20Z</time>
      </trkpt>
      <trkpt lat="50.28025" lon="2.7612">
        <ele>53.01</ele>
        <time>2018-08-25T13:38:41Z</time>
      </trkpt>
      <trkpt lat="50.28015" lon="2.76098">
        <ele>55.41</ele>
        <time>2018-08-25T13:38:59Z</time>
      </trkpt>
      <trkpt lat="50.27996" lon="2.76093">
        <ele>55.41</ele>
        <time>2018-08-25T13:39:17Z</time>
      </trkpt>
      <trkpt lat="50.27984" lon="2.76089">
        <ele>55.41</ele>
        <time>2018-08-25T13:39:35Z</time>
      </trkpt>
      <trkpt lat="50.27969" lon="2.76077">
        <ele>54.45</ele>
        <time>2018-08-25T13:39:47Z</time>
      </trkpt>
      <trkpt lat="50.27947" lon="2.76065">
        <ele>54.45</ele>
        <time>2018-08-25T13:40:08Z</time>
      </trkpt>
      <trkpt lat="50.27935" lon="2.76042">
        <ele>53.97</ele>
        <time>2018-08-25T13:40:28Z</time>
      </trkpt>
      <trkpt lat="50.27921" lon="2.76019">
        <ele>53.97</ele>
        <time>2018-08-25T13:40:45Z</time>
      </trkpt>
      <trkpt lat="50.27903" lon="2.75988">
        <ele>53.97</ele>
        <time>2018-08-25T13:41:08Z</time>
      </trkpt>
      <trkpt lat="50.27886" lon="2.75957">
        <ele>53.97</ele>
        <time>2018-08-25T13:41:28Z</time>
      </trkpt>
      <trkpt lat="50.2787" lon="2.75928">
        <ele>53.97</ele>
        <time>2018-08-25T13:41:47Z</time>
      </trkpt>
      <trkpt lat="50.27857" lon="2.75907">
        <ele>53.97</ele>
        <time>2018-08-25T13:42:01Z</time>
      </trkpt>
      <trkpt lat="50.27854" lon="2.759">
        <ele>53.97</ele>
        <time>2018-08-25T13:42:05Z</time>
      </trkpt>
      <trkpt lat="50.27832" lon="2.75872">
        <ele>53.97</ele>
        <time>2018-08-25T13:42:27Z</time>
      </trkpt>
      <trkpt lat="50.27825" lon="2.75871">
        <ele>53.97</ele>
        <time>2018-08-25T13:42:33Z</time>
      </trkpt>
      <trkpt lat="50.27818" lon="2.7586">
        <ele>55.41</ele>
        <time>2018-08-25T13:42:42Z</time>
      </trkpt>
      <trkpt lat="50.27814" lon="2.75852">
        <ele>55.89</ele>
        <time>2018-08-25T13:42:48Z</time>
      </trkpt>
      <trkpt lat="50.27801" lon="2.75824">
        <ele>55.89</ele>
        <time>2018-08-25T13:43:08Z</time>
      </trkpt>
      <trkpt lat="50.27794" lon="2.75792">
        <ele>55.89</ele>
        <time>2018-08-25T13:43:25Z</time>
      </trkpt>
      <trkpt lat="50.27793" lon="2.7575">
        <ele>55.89</ele>
        <time>2018-08-25T13:43:47Z</time>
      </trkpt>
      <trkpt lat="50.27789" lon="2.75716">
        <ele>55.41</ele>
        <time>2018-08-25T13:44:05Z</time>
      </trkpt>
      <trkpt lat="50.27789" lon="2.75704">
        <ele>55.41</ele>
        <time>2018-08-25T13:44:12Z</time>
      </trkpt>
      <trkpt lat="50.27789" lon="2.75699">
        <ele>55.41</ele>
        <time>2018-08-25T13:44:14Z</time>
      </trkpt>
      <trkpt lat="50.27787" lon="2.75667">
        <ele>55.89</ele>
        <time>2018-08-25T13:44:32Z</time>
      </trkpt>
      <trkpt lat="50.27784" lon="2.75629">
        <ele>55.89</ele>
        <time>2018-08-25T13:44:52Z</time>
      </trkpt>
      <trkpt lat="50.27782" lon="2.75591">
        <ele>56.37</ele>
        <time>2018-08-25T13:45:14Z</time>
      </trkpt>
      <trkpt lat="50.2778" lon="2.75572">
        <ele>55.89</ele>
        <time>2018-08-25T13:45:23Z</time>
      </trkpt>
      <trkpt lat="50.27781" lon="2.75532">
        <ele>56.37</ele>
        <time>2018-08-25T13:45:45Z</time>
      </trkpt>
      <trkpt lat="50.27777" lon="2.75491">
        <ele>56.37</ele>
        <time>2018-08-25T13:46:06Z</time>
      </trkpt>
      <trkpt lat="50.27774" lon="2.75452">
        <ele>56.86</ele>
        <time>2018-08-25T13:46:27Z</time>
      </trkpt>
      <trkpt lat="50.27771" lon="2.75415">
        <ele>57.34</ele>
        <time>2018-08-25T13:46:46Z</time>
      </trkpt>
      <trkpt lat="50.27769" lon="2.75384">
        <ele>57.34</ele>
        <time>2018-08-25T13:47:02Z</time>
      </trkpt>
      <trkpt lat="50.27767" lon="2.75344">
        <ele>57.34</ele>
        <time>2018-08-25T13:47:23Z</time>
      </trkpt>
      <trkpt lat="50.27764" lon="2.75307">
        <ele>57.82</ele>
        <time>2018-08-25T13:47:42Z</time>
      </trkpt>
      <trkpt lat="50.27764" lon="2.75297">
        <ele>57.82</ele>
        <time>2018-08-25T13:47:48Z</time>
      </trkpt>
      <trkpt lat="50.27764" lon="2.75292">
        <ele>56.37</ele>
        <time>2018-08-25T13:47:51Z</time>
      </trkpt>
      <trkpt lat="50.27762" lon="2.75275">
        <ele>58.3</ele>
        <time>2018-08-25T13:48:00Z</time>
      </trkpt>
      <trkpt lat="50.27762" lon="2.7527">
        <ele>58.3</ele>
        <time>2018-08-25T13:48:02Z</time>
      </trkpt>
      <trkpt lat="50.27759" lon="2.75232">
        <ele>59.26</ele>
        <time>2018-08-25T13:48:22Z</time>
      </trkpt>
      <trkpt lat="50.27761" lon="2.75208">
        <ele>59.74</ele>
        <time>2018-08-25T13:48:36Z</time>
      </trkpt>
      <trkpt lat="50.27781" lon="2.75196">
        <ele>60.7</ele>
        <time>2018-08-25T13:48:55Z</time>
      </trkpt>
      <trkpt lat="50.278" lon="2.75188">
        <ele>60.7</ele>
        <time>2018-08-25T13:49:13Z</time>
      </trkpt>
      <trkpt lat="50.27816" lon="2.75173">
        <ele>62.14</ele>
        <time>2018-08-25T13:49:36Z</time>
      </trkpt>
      <trkpt lat="50.27836" lon="2.75148">
        <ele>63.1</ele>
        <time>2018-08-25T13:49:57Z</time>
      </trkpt>
      <trkpt lat="50.27849" lon="2.75128">
        <ele>64.07</ele>
        <time>2018-08-25T13:50:15Z</time>
      </trkpt>
      <trkpt lat="50.27865" lon="2.75111">
        <ele>64.55</ele>
        <time>2018-08-25T13:50:30Z</time>
      </trkpt>
      <trkpt lat="50.27882" lon="2.75098">
        <ele>65.03</ele>
        <time>2018-08-25T13:50:52Z</time>
      </trkpt>
      <trkpt lat="50.27904" lon="2.75073">
        <ele>65.51</ele>
        <time>2018-08-25T13:51:13Z</time>
      </trkpt>
      <trkpt lat="50.27923" lon="2.75044">
        <ele>65.99</ele>
        <time>2018-08-25T13:51:32Z</time>
      </trkpt>
      <trkpt lat="50.27943" lon="2.7503">
        <ele>66.47</ele>
        <time>2018-08-25T13:51:52Z</time>
      </trkpt>
      <trkpt lat="50.27963" lon="2.75034">
        <ele>66.47</ele>
        <time>2018-08-25T13:52:10Z</time>
      </trkpt>
      <trkpt lat="50.27979" lon="2.75057">
        <ele>66.47</ele>
        <time>2018-08-25T13:52:29Z</time>
      </trkpt>
      <trkpt lat="50.27983" lon="2.7509">
        <ele>65.99</ele>
        <time>2018-08-25T13:52:50Z</time>
      </trkpt>
      <trkpt lat="50.27987" lon="2.7513">
        <ele>64.55</ele>
        <time>2018-08-25T13:53:13Z</time>
      </trkpt>
      <trkpt lat="50.2799" lon="2.75175">
        <ele>63.58</ele>
        <time>2018-08-25T13:53:35Z</time>
      </trkpt>
      <trkpt lat="50.28005" lon="2.75174">
        <ele>63.58</ele>
        <time>2018-08-25T13:53:54Z</time>
      </trkpt>
      <trkpt lat="50.28015" lon="2.75156">
        <ele>63.1</ele>
        <time>2018-08-25T13:54:14Z</time>
      </trkpt>
      <trkpt lat="50.28037" lon="2.75134">
        <ele>64.07</ele>
        <time>2018-08-25T13:54:36Z</time>
      </trkpt>
      <trkpt lat="50.2806" lon="2.75117">
        <ele>64.07</ele>
        <time>2018-08-25T13:54:59Z</time>
      </trkpt>
      <trkpt lat="50.28073" lon="2.75118">
        <ele>63.58</ele>
        <time>2018-08-25T13:55:02Z</time>
      </trkpt>
      <trkpt lat="50.28092" lon="2.75102">
        <ele>63.58</ele>
        <time>2018-08-25T13:55:21Z</time>
      </trkpt>
      <trkpt lat="50.28114" lon="2.75097">
        <ele>63.58</ele>
        <time>2018-08-25T13:55:33Z</time>
      </trkpt>
      <trkpt lat="50.28117" lon="2.75101">
        <ele>63.58</ele>
        <time>2018-08-25T13:55:38Z</time>
      </trkpt>
      <trkpt lat="50.28124" lon="2.75115">
        <ele>63.58</ele>
        <time>2018-08-25T13:55:51Z</time>
      </trkpt>
      <trkpt lat="50.28146" lon="2.75136">
        <ele>63.58</ele>
        <time>2018-08-25T13:56:09Z</time>
      </trkpt>
      <trkpt lat="50.28161" lon="2.75154">
        <ele>63.58</ele>
        <time>2018-08-25T13:56:28Z</time>
      </trkpt>
      <trkpt lat="50.28164" lon="2.75175">
        <ele>63.1</ele>
        <time>2018-08-25T13:56:34Z</time>
      </trkpt>
      <trkpt lat="50.28181" lon="2.75196">
        <ele>61.66</ele>
        <time>2018-08-25T13:56:55Z</time>
      </trkpt>
      <trkpt lat="50.282" lon="2.75218">
        <ele>59.26</ele>
        <time>2018-08-25T13:57:14Z</time>
      </trkpt>
      <trkpt lat="50.28226" lon="2.75254">
        <ele>58.78</ele>
        <time>2018-08-25T13:57:40Z</time>
      </trkpt>
      <trkpt lat="50.28245" lon="2.7528">
        <ele>58.3</ele>
        <time>2018-08-25T13:58:01Z</time>
      </trkpt>
      <trkpt lat="50.28263" lon="2.75301">
        <ele>56.86</ele>
        <time>2018-08-25T13:58:22Z</time>
      </trkpt>
      <trkpt lat="50.28264" lon="2.75303">
        <ele>56.86</ele>
        <time>2018-08-25T13:58:24Z</time>
      </trkpt>
      <trkpt lat="50.28286" lon="2.75335">
        <ele>55.41</ele>
        <time>2018-08-25T13:58:45Z</time>
      </trkpt>
      <trkpt lat="50.28306" lon="2.75354">
        <ele>54.45</ele>
        <time>2018-08-25T13:59:05Z</time>
      </trkpt>
      <trkpt lat="50.28321" lon="2.7538">
        <ele>53.01</ele>
        <time>2018-08-25T13:59:26Z</time>
      </trkpt>
      <trkpt lat="50.28339" lon="2.75407">
        <ele>52.53</ele>
        <time>2018-08-25T13:59:48Z</time>
      </trkpt>
      <trkpt lat="50.28349" lon="2.75422">
        <ele>52.53</ele>
        <time>2018-08-25T13:59:54Z</time>
      </trkpt>
      <trkpt lat="50.28351" lon="2.75426">
        <ele>52.53</ele>
        <time>2018-08-25T13:59:56Z</time>
      </trkpt>
      <trkpt lat="50.28364" lon="2.7545">
        <ele>52.05</ele>
        <time>2018-08-25T14:00:09Z</time>
      </trkpt>
      <trkpt lat="50.28376" lon="2.75474">
        <ele>52.05</ele>
        <time>2018-08-25T14:00:24Z</time>
      </trkpt>
      <trkpt lat="50.28385" lon="2.75496">
        <ele>51.09</ele>
        <time>2018-08-25T14:00:38Z</time>
      </trkpt>
      <trkpt lat="50.28393" lon="2.75504">
        <ele>51.09</ele>
        <time>2018-08-25T14:00:45Z</time>
      </trkpt>
      <trkpt lat="50.28406" lon="2.75517">
        <ele>49.65</ele>
        <time>2018-08-25T14:00:58Z</time>
      </trkpt>
      <trkpt lat="50.28407" lon="2.75519">
        <ele>49.65</ele>
        <time>2018-08-25T14:01:00Z</time>
      </trkpt>
      <trkpt lat="50.28411" lon="2.75526">
        <ele>49.16</ele>
        <time>2018-08-25T14:01:05Z</time>
      </trkpt>
      <trkpt lat="50.28417" lon="2.75533">
        <ele>49.16</ele>
        <time>2018-08-25T14:01:10Z</time>
      </trkpt>
      <trkpt lat="50.2843" lon="2.75558">
        <ele>46.76</ele>
        <time>2018-08-25T14:01:27Z</time>
      </trkpt>
      <trkpt lat="50.28432" lon="2.75559">
        <ele>48.2</ele>
        <time>2018-08-25T14:01:29Z</time>
      </trkpt>
      <trkpt lat="50.28434" lon="2.75561">
        <ele>46.76</ele>
        <time>2018-08-25T14:01:32Z</time>
      </trkpt>
      <trkpt lat="50.28448" lon="2.75589">
        <ele>46.76</ele>
        <time>2018-08-25T14:01:54Z</time>
      </trkpt>
      <trkpt lat="50.28464" lon="2.75602">
        <ele>48.2</ele>
        <time>2018-08-25T14:02:09Z</time>
      </trkpt>
      <trkpt lat="50.28483" lon="2.75612">
        <ele>48.2</ele>
        <time>2018-08-25T14:02:25Z</time>
      </trkpt>
      <trkpt lat="50.285" lon="2.75632">
        <ele>46.76</ele>
        <time>2018-08-25T14:02:48Z</time>
      </trkpt>
      <trkpt lat="50.28509" lon="2.75642">
        <ele>45.8</ele>
        <time>2018-08-25T14:03:04Z</time>
      </trkpt>
      <trkpt lat="50.28511" lon="2.75643">
        <ele>46.28</ele>
        <time>2018-08-25T14:03:06Z</time>
      </trkpt>
      <trkpt lat="50.28515" lon="2.75649">
        <ele>45.8</ele>
        <time>2018-08-25T14:03:11Z</time>
      </trkpt>
      <trkpt lat="50.2853" lon="2.75673">
        <ele>45.8</ele>
        <time>2018-08-25T14:03:34Z</time>
      </trkpt>
      <trkpt lat="50.28541" lon="2.75699">
        <ele>45.8</ele>
        <time>2018-08-25T14:03:54Z</time>
      </trkpt>
      <trkpt lat="50.28555" lon="2.75731">
        <ele>45.8</ele>
        <time>2018-08-25T14:04:18Z</time>
      </trkpt>
      <trkpt lat="50.28564" lon="2.75755">
        <ele>46.28</ele>
        <time>2018-08-25T14:04:38Z</time>
      </trkpt>
      <trkpt lat="50.28576" lon="2.75784">
        <ele>45.8</ele>
        <time>2018-08-25T14:04:59Z</time>
      </trkpt>
      <trkpt lat="50.28582" lon="2.75827">
        <ele>44.84</ele>
        <time>2018-08-25T14:05:23Z</time>
      </trkpt>
      <trkpt lat="50.28589" lon="2.75849">
        <ele>44.36</ele>
        <time>2018-08-25T14:05:42Z</time>
      </trkpt>
      <trkpt lat="50.28601" lon="2.75877">
        <ele>44.36</ele>
        <time>2018-08-25T14:06:03Z</time>
      </trkpt>
      <trkpt lat="50.28613" lon="2.75919">
        <ele>43.88</ele>
        <time>2018-08-25T14:06:26Z</time>
      </trkpt>
      <trkpt lat="50.28619" lon="2.75951">
        <ele>43.88</ele>
        <time>2018-08-25T14:06:43Z</time>
      </trkpt>
      <trkpt lat="50.28626" lon="2.75975">
        <ele>43.88</ele>
        <time>2018-08-25T14:07:02Z</time>
      </trkpt>
      <trkpt lat="50.28639" lon="2.75993">
        <ele>43.4</ele>
        <time>2018-08-25T14:07:20Z</time>
      </trkpt>
      <trkpt lat="50.28655" lon="2.76021">
        <ele>44.36</ele>
        <time>2018-08-25T14:07:41Z</time>
      </trkpt>
      <trkpt lat="50.2866" lon="2.76056">
        <ele>42.92</ele>
        <time>2018-08-25T14:07:58Z</time>
      </trkpt>
      <trkpt lat="50.28667" lon="2.76059">
        <ele>42.92</ele>
        <time>2018-08-25T14:08:11Z</time>
      </trkpt>
      <trkpt lat="50.28671" lon="2.76072">
        <ele>42.44</ele>
        <time>2018-08-25T14:08:28Z</time>
      </trkpt>
      <trkpt lat="50.28675" lon="2.76076">
        <ele>41.95</ele>
        <time>2018-08-25T14:08:43Z</time>
      </trkpt>
      <trkpt lat="50.28677" lon="2.76081">
        <ele>41.95</ele>
        <time>2018-08-25T14:08:46Z</time>
      </trkpt>
      <trkpt lat="50.28689" lon="2.76108">
        <ele>42.44</ele>
        <time>2018-08-25T14:09:06Z</time>
      </trkpt>
      <trkpt lat="50.28708" lon="2.76104">
        <ele>42.44</ele>
        <time>2018-08-25T14:09:29Z</time>
      </trkpt>
      <trkpt lat="50.2873" lon="2.76098">
        <ele>43.4</ele>
        <time>2018-08-25T14:09:49Z</time>
      </trkpt>
      <trkpt lat="50.28751" lon="2.7609">
        <ele>43.4</ele>
        <time>2018-08-25T14:10:10Z</time>
      </trkpt>
      <trkpt lat="50.2878" lon="2.76076">
        <ele>43.4</ele>
        <time>2018-08-25T14:10:33Z</time>
      </trkpt>
      <trkpt lat="50.28799" lon="2.76066">
        <ele>43.88</ele>
        <time>2018-08-25T14:10:52Z</time>
      </trkpt>
      <trkpt lat="50.28818" lon="2.7606">
        <ele>43.88</ele>
        <time>2018-08-25T14:11:14Z</time>
      </trkpt>
      <trkpt lat="50.28845" lon="2.76053">
        <ele>44.36</ele>
        <time>2018-08-25T14:11:38Z</time>
      </trkpt>
      <trkpt lat="50.28871" lon="2.76047">
        <ele>45.32</ele>
        <time>2018-08-25T14:11:58Z</time>
      </trkpt>
      <trkpt lat="50.28893" lon="2.76042">
        <ele>45.32</ele>
        <time>2018-08-25T14:12:16Z</time>
      </trkpt>
      <trkpt lat="50.28911" lon="2.76039">
        <ele>45.8</ele>
        <time>2018-08-25T14:12:34Z</time>
      </trkpt>
      <trkpt lat="50.28917" lon="2.7603">
        <ele>46.28</ele>
        <time>2018-08-25T14:12:48Z</time>
      </trkpt>
      <trkpt lat="50.28929" lon="2.76046">
        <ele>45.8</ele>
        <time>2018-08-25T14:13:06Z</time>
      </trkpt>
      <trkpt lat="50.28947" lon="2.76071">
        <ele>45.8</ele>
        <time>2018-08-25T14:13:25Z</time>
      </trkpt>
      <trkpt lat="50.28955" lon="2.76099">
        <ele>45.8</ele>
        <time>2018-08-25T14:13:43Z</time>
      </trkpt>
      <trkpt lat="50.28961" lon="2.76114">
        <ele>44.36</ele>
        <time>2018-08-25T14:13:53Z</time>
      </trkpt>
      <trkpt lat="50.28966" lon="2.76145">
        <ele>44.36</ele>
        <time>2018-08-25T14:14:13Z</time>
      </trkpt>
      <trkpt lat="50.28986" lon="2.76139">
        <ele>43.88</ele>
        <time>2018-08-25T14:14:27Z</time>
      </trkpt>
      <trkpt lat="50.29002" lon="2.7614">
        <ele>43.88</ele>
        <time>2018-08-25T14:14:44Z</time>
      </trkpt>
      <trkpt lat="50.29012" lon="2.76137">
        <ele>44.84</ele>
        <time>2018-08-25T14:15:01Z</time>
      </trkpt>
      <trkpt lat="50.2903" lon="2.76119">
        <ele>45.32</ele>
        <time>2018-08-25T14:15:23Z</time>
      </trkpt>
      <trkpt lat="50.29052" lon="2.761">
        <ele>45.32</ele>
        <time>2018-08-25T14:15:43Z</time>
      </trkpt>
      <trkpt lat="50.29081" lon="2.76094">
        <ele>45.32</ele>
        <time>2018-08-25T14:16:04Z</time>
      </trkpt>
      <trkpt lat="50.29095" lon="2.76081">
        <ele>44.84</ele>
        <time>2018-08-25T14:16:24Z</time>
      </trkpt>
      <trkpt lat="50.29111" lon="2.76074">
        <ele>44.84</ele>
        <time>2018-08-25T14:16:44Z</time>
      </trkpt>
      <trkpt lat="50.29125" lon="2.76063">
        <ele>45.8</ele>
        <time>2018-08-25T14:17:01Z</time>
      </trkpt>
      <trkpt lat="50.29126" lon="2.76062">
        <ele>45.8</ele>
        <time>2018-08-25T14:17:02Z</time>
      </trkpt>
      <trkpt lat="50.29147" lon="2.76038">
        <ele>46.28</ele>
        <time>2018-08-25T14:17:21Z</time>
      </trkpt>
      <trkpt lat="50.2915" lon="2.76006">
        <ele>46.76</ele>
        <time>2018-08-25T14:17:43Z</time>
      </trkpt>
      <trkpt lat="50.29159" lon="2.75979">
        <ele>45.8</ele>
        <time>2018-08-25T14:18:08Z</time>
      </trkpt>
      <trkpt lat="50.29181" lon="2.75959">
        <ele>42.92</ele>
        <time>2018-08-25T14:18:35Z</time>
      </trkpt>
      <trkpt lat="50.29203" lon="2.75962">
        <ele>40.03</ele>
        <time>2018-08-25T14:18:55Z</time>
      </trkpt>
      <trkpt lat="50.29213" lon="2.75966">
        <ele>38.59</ele>
        <time>2018-08-25T14:19:05Z</time>
      </trkpt>
      <trkpt lat="50.29239" lon="2.75978">
        <ele>37.63</ele>
        <time>2018-08-25T14:19:22Z</time>
      </trkpt>
      <trkpt lat="50.2925" lon="2.75969">
        <ele>37.63</ele>
        <time>2018-08-25T14:19:33Z</time>
      </trkpt>
      <trkpt lat="50.29264" lon="2.75959">
        <ele>38.59</ele>
        <time>2018-08-25T14:19:43Z</time>
      </trkpt>
      <trkpt lat="50.29271" lon="2.75952">
        <ele>38.59</ele>
        <time>2018-08-25T14:19:48Z</time>
      </trkpt>
      <trkpt lat="50.29293" lon="2.75908">
        <ele>38.59</ele>
        <time>2018-08-25T14:20:13Z</time>
      </trkpt>
      <trkpt lat="50.29302" lon="2.75886">
        <ele>38.59</ele>
        <time>2018-08-25T14:20:29Z</time>
      </trkpt>
      <trkpt lat="50.29318" lon="2.75879">
        <ele>39.55</ele>
        <time>2018-08-25T14:20:40Z</time>
      </trkpt>
      <trkpt lat="50.29324" lon="2.75882">
        <ele>38.59</ele>
        <time>2018-08-25T14:20:46Z</time>
      </trkpt>
      <trkpt lat="50.29337" lon="2.7589">
        <ele>39.55</ele>
        <time>2018-08-25T14:20:57Z</time>
      </trkpt>
      <trkpt lat="50.29363" lon="2.75896">
        <ele>40.51</ele>
        <time>2018-08-25T14:21:18Z</time>
      </trkpt>
      <trkpt lat="50.29392" lon="2.75895">
        <ele>41.95</ele>
        <time>2018-08-25T14:21:39Z</time>
      </trkpt>
      <trkpt lat="50.29409" lon="2.75892">
        <ele>41.95</ele>
        <time>2018-08-25T14:21:55Z</time>
      </trkpt>
      <trkpt lat="50.29431" lon="2.75876">
        <ele>42.92</ele>
        <time>2018-08-25T14:22:12Z</time>
      </trkpt>
      <trkpt lat="50.29444" lon="2.75878">
        <ele>44.36</ele>
        <time>2018-08-25T14:22:30Z</time>
      </trkpt>
      <trkpt lat="50.29452" lon="2.75868">
        <ele>44.84</ele>
        <time>2018-08-25T14:22:51Z</time>
      </trkpt>
      <trkpt lat="50.29464" lon="2.7585">
        <ele>45.8</ele>
        <time>2018-08-25T14:23:02Z</time>
      </trkpt>
      <trkpt lat="50.29472" lon="2.75883">
        <ele>45.8</ele>
        <time>2018-08-25T14:23:26Z</time>
      </trkpt>
      <trkpt lat="50.29485" lon="2.75923">
        <ele>47.24</ele>
        <time>2018-08-25T14:23:47Z</time>
      </trkpt>
      <trkpt lat="50.29493" lon="2.75957">
        <ele>50.13</ele>
        <time>2018-08-25T14:24:07Z</time>
      </trkpt>
      <trkpt lat="50.29502" lon="2.75979">
        <ele>51.57</ele>
        <time>2018-08-25T14:24:27Z</time>
      </trkpt>
      <trkpt lat="50.29523" lon="2.75976">
        <ele>53.49</ele>
        <time>2018-08-25T14:24:45Z</time>
      </trkpt>
      <trkpt lat="50.29541" lon="2.75985">
        <ele>53.49</ele>
        <time>2018-08-25T14:25:04Z</time>
      </trkpt>
      <trkpt lat="50.29555" lon="2.76015">
        <ele>52.53</ele>
        <time>2018-08-25T14:25:22Z</time>
      </trkpt>
      <trkpt lat="50.29568" lon="2.7604">
        <ele>52.53</ele>
        <time>2018-08-25T14:25:38Z</time>
      </trkpt>
      <trkpt lat="50.29578" lon="2.76068">
        <ele>52.53</ele>
        <time>2018-08-25T14:25:55Z</time>
      </trkpt>
      <trkpt lat="50.29588" lon="2.76101">
        <ele>52.05</ele>
        <time>2018-08-25T14:26:16Z</time>
      </trkpt>
      <trkpt lat="50.29599" lon="2.76127">
        <ele>52.53</ele>
        <time>2018-08-25T14:26:33Z</time>
      </trkpt>
      <trkpt lat="50.29611" lon="2.76151">
        <ele>52.53</ele>
        <time>2018-08-25T14:26:50Z</time>
      </trkpt>
      <trkpt lat="50.29625" lon="2.76185">
        <ele>52.53</ele>
        <time>2018-08-25T14:27:11Z</time>
      </trkpt>
      <trkpt lat="50.29633" lon="2.76215">
        <ele>52.05</ele>
        <time>2018-08-25T14:27:31Z</time>
      </trkpt>
      <trkpt lat="50.29645" lon="2.76248">
        <ele>53.49</ele>
        <time>2018-08-25T14:27:51Z</time>
      </trkpt>
      <trkpt lat="50.29647" lon="2.76286">
        <ele>52.05</ele>
        <time>2018-08-25T14:28:13Z</time>
      </trkpt>
      <trkpt lat="50.29652" lon="2.76266">
        <ele>52.05</ele>
        <time>2018-08-25T14:28:29Z</time>
      </trkpt>
      <trkpt lat="50.29655" lon="2.76254">
        <ele>53.01</ele>
        <time>2018-08-25T14:28:43Z</time>
      </trkpt>
      <trkpt lat="50.29661" lon="2.76244">
        <ele>53.01</ele>
        <time>2018-08-25T14:28:53Z</time>
      </trkpt>
      <trkpt lat="50.29672" lon="2.76233">
        <ele>53.49</ele>
        <time>2018-08-25T14:29:08Z</time>
      </trkpt>
      <trkpt lat="50.29676" lon="2.76232">
        <ele>53.97</ele>
        <time>2018-08-25T14:29:31Z</time>
      </trkpt>
      <trkpt lat="50.29675" lon="2.76235">
        <ele>53.97</ele>
        <time>2018-08-25T14:29:57Z</time>
      </trkpt>
      <trkpt lat="50.2968" lon="2.76247">
        <ele>53.97</ele>
        <time>2018-08-25T14:30:22Z</time>
      </trkpt>
      <trkpt lat="50.29694" lon="2.76258">
        <ele>53.97</ele>
        <time>2018-08-25T14:30:40Z</time>
      </trkpt>
      <trkpt lat="50.29705" lon="2.7627">
        <ele>54.45</ele>
        <time>2018-08-25T14:30:56Z</time>
      </trkpt>
      <trkpt lat="50.29727" lon="2.76267">
        <ele>54.45</ele>
        <time>2018-08-25T14:31:14Z</time>
      </trkpt>
      <trkpt lat="50.29756" lon="2.76269">
        <ele>53.01</ele>
        <time>2018-08-25T14:31:38Z</time>
      </trkpt>
      <trkpt lat="50.29777" lon="2.76267">
        <ele>52.05</ele>
        <time>2018-08-25T14:31:58Z</time>
      </trkpt>
      <trkpt lat="50.29798" lon="2.76266">
        <ele>50.61</ele>
        <time>2018-08-25T14:32:18Z</time>
      </trkpt>
      <trkpt lat="50.29823" lon="2.76263">
        <ele>49.65</ele>
        <time>2018-08-25T14:32:39Z</time>
      </trkpt>
      <trkpt lat="50.29848" lon="2.76262">
        <ele>48.68</ele>
        <time>2018-08-25T14:33:01Z</time>
      </trkpt>
      <trkpt lat="50.29866" lon="2.76261">
        <ele>46.76</ele>
        <time>2018-08-25T14:33:18Z</time>
      </trkpt>
      <trkpt lat="50.29891" lon="2.7626">
        <ele>43.88</ele>
        <time>2018-08-25T14:33:40Z</time>
      </trkpt>
      <trkpt lat="50.29913" lon="2.7625">
        <ele>40.51</ele>
        <time>2018-08-25T14:33:59Z</time>
      </trkpt>
      <trkpt lat="50.29928" lon="2.76249">
        <ele>36.67</ele>
        <time>2018-08-25T14:34:17Z</time>
      </trkpt>
      <trkpt lat="50.29955" lon="2.7624">
        <ele>35.23</ele>
        <time>2018-08-25T14:34:42Z</time>
      </trkpt>
      <trkpt lat="50.29964" lon="2.76237">
        <ele>34.74</ele>
        <time>2018-08-25T14:35:03Z</time>
      </trkpt>
      <trkpt lat="50.29972" lon="2.76226">
        <ele>33.78</ele>
        <time>2018-08-25T14:35:24Z</time>
      </trkpt>
      <trkpt lat="50.29992" lon="2.76213">
        <ele>34.26</ele>
        <time>2018-08-25T14:35:42Z</time>
      </trkpt>
      <trkpt lat="50.30009" lon="2.762">
        <ele>35.23</ele>
        <time>2018-08-25T14:36:05Z</time>
      </trkpt>
      <trkpt lat="50.30008" lon="2.76209">
        <ele>35.71</ele>
        <time>2018-08-25T14:36:29Z</time>
      </trkpt>
      <trkpt lat="50.30015" lon="2.76177">
        <ele>34.74</ele>
        <time>2018-08-25T14:36:50Z</time>
      </trkpt>
      <trkpt lat="50.30037" lon="2.76162">
        <ele>34.74</ele>
        <time>2018-08-25T14:37:12Z</time>
      </trkpt>
      <trkpt lat="50.3006" lon="2.76151">
        <ele>34.74</ele>
        <time>2018-08-25T14:37:33Z</time>
      </trkpt>
      <trkpt lat="50.30084" lon="2.76141">
        <ele>35.23</ele>
        <time>2018-08-25T14:37:56Z</time>
      </trkpt>
      <trkpt lat="50.30089" lon="2.76113">
        <ele>35.23</ele>
        <time>2018-08-25T14:38:13Z</time>
      </trkpt>
      <trkpt lat="50.30081" lon="2.76085">
        <ele>35.23</ele>
        <time>2018-08-25T14:38:32Z</time>
      </trkpt>
      <trkpt lat="50.30073" lon="2.7608">
        <ele>36.67</ele>
        <time>2018-08-25T14:38:43Z</time>
      </trkpt>
      <trkpt lat="50.30064" lon="2.7606">
        <ele>36.67</ele>
        <time>2018-08-25T14:38:53Z</time>
      </trkpt>
      <trkpt lat="50.30056" lon="2.76047">
        <ele>35.71</ele>
        <time>2018-08-25T14:39:03Z</time>
      </trkpt>
      <trkpt lat="50.3005" lon="2.76016">
        <ele>38.11</ele>
        <time>2018-08-25T14:39:21Z</time>
      </trkpt>
      <trkpt lat="50.30058" lon="2.75985">
        <ele>39.07</ele>
        <time>2018-08-25T14:39:41Z</time>
      </trkpt>
      <trkpt lat="50.30075" lon="2.75973">
        <ele>39.55</ele>
        <time>2018-08-25T14:40:01Z</time>
      </trkpt>
      <trkpt lat="50.30106" lon="2.75975">
        <ele>37.63</ele>
        <time>2018-08-25T14:40:27Z</time>
      </trkpt>
      <trkpt lat="50.30123" lon="2.75965">
        <ele>37.63</ele>
        <time>2018-08-25T14:40:44Z</time>
      </trkpt>
      <trkpt lat="50.30143" lon="2.75935">
        <ele>37.63</ele>
        <time>2018-08-25T14:41:04Z</time>
      </trkpt>
      <trkpt lat="50.30149" lon="2.75897">
        <ele>38.59</ele>
        <time>2018-08-25T14:41:27Z</time>
      </trkpt>
      <trkpt lat="50.30149" lon="2.75862">
        <ele>38.59</ele>
        <time>2018-08-25T14:41:47Z</time>
      </trkpt>
      <trkpt lat="50.30147" lon="2.75836">
        <ele>37.63</ele>
        <time>2018-08-25T14:42:06Z</time>
      </trkpt>
      <trkpt lat="50.30139" lon="2.75806">
        <ele>37.63</ele>
        <time>2018-08-25T14:42:23Z</time>
      </trkpt>
      <trkpt lat="50.30123" lon="2.75788">
        <ele>37.63</ele>
        <time>2018-08-25T14:42:41Z</time>
      </trkpt>
      <trkpt lat="50.30112" lon="2.75757">
        <ele>37.63</ele>
        <time>2018-08-25T14:42:58Z</time>
      </trkpt>
      <trkpt lat="50.30109" lon="2.75734">
        <ele>39.07</ele>
        <time>2018-08-25T14:43:14Z</time>
      </trkpt>
      <trkpt lat="50.30106" lon="2.75694">
        <ele>39.07</ele>
        <time>2018-08-25T14:43:34Z</time>
      </trkpt>
      <trkpt lat="50.3011" lon="2.75674">
        <ele>39.07</ele>
        <time>2018-08-25T14:43:55Z</time>
      </trkpt>
      <trkpt lat="50.30119" lon="2.75644">
        <ele>39.07</ele>
        <time>2018-08-25T14:44:15Z</time>
      </trkpt>
      <trkpt lat="50.30124" lon="2.7561">
        <ele>38.11</ele>
        <time>2018-08-25T14:44:33Z</time>
      </trkpt>
      <trkpt lat="50.30125" lon="2.75604">
        <ele>38.11</ele>
        <time>2018-08-25T14:44:36Z</time>
      </trkpt>
      <trkpt lat="50.30132" lon="2.75578">
        <ele>38.11</ele>
        <time>2018-08-25T14:44:53Z</time>
      </trkpt>
      <trkpt lat="50.3012" lon="2.75558">
        <ele>38.11</ele>
        <time>2018-08-25T14:45:12Z</time>
      </trkpt>
      <trkpt lat="50.30106" lon="2.75538">
        <ele>38.11</ele>
        <time>2018-08-25T14:45:28Z</time>
      </trkpt>
      <trkpt lat="50.30093" lon="2.75527">
        <ele>38.11</ele>
        <time>2018-08-25T14:45:49Z</time>
      </trkpt>
      <trkpt lat="50.30075" lon="2.75501">
        <ele>39.07</ele>
        <time>2018-08-25T14:46:11Z</time>
      </trkpt>
      <trkpt lat="50.30059" lon="2.75471">
        <ele>39.07</ele>
        <time>2018-08-25T14:46:29Z</time>
      </trkpt>
      <trkpt lat="50.30045" lon="2.75439">
        <ele>39.07</ele>
        <time>2018-08-25T14:46:49Z</time>
      </trkpt>
      <trkpt lat="50.30037" lon="2.75415">
        <ele>38.11</ele>
        <time>2018-08-25T14:47:03Z</time>
      </trkpt>
      <trkpt lat="50.30023" lon="2.75384">
        <ele>38.11</ele>
        <time>2018-08-25T14:47:26Z</time>
      </trkpt>
      <trkpt lat="50.30011" lon="2.75357">
        <ele>39.55</ele>
        <time>2018-08-25T14:47:47Z</time>
      </trkpt>
      <trkpt lat="50.30012" lon="2.75359">
        <ele>40.03</ele>
        <time>2018-08-25T14:48:15Z</time>
      </trkpt>
      <trkpt lat="50.30011" lon="2.75355">
        <ele>40.03</ele>
        <time>2018-08-25T14:48:39Z</time>
      </trkpt>
      <trkpt lat="50.30016" lon="2.75353">
        <ele>40.51</ele>
        <time>2018-08-25T14:49:00Z</time>
      </trkpt>
      <trkpt lat="50.30011" lon="2.75354">
        <ele>39.55</ele>
        <time>2018-08-25T14:49:19Z</time>
      </trkpt>
      <trkpt lat="50.30013" lon="2.75353">
        <ele>39.55</ele>
        <time>2018-08-25T14:49:47Z</time>
      </trkpt>
      <trkpt lat="50.30013" lon="2.75354">
        <ele>39.55</ele>
        <time>2018-08-25T14:50:12Z</time>
      </trkpt>
      <trkpt lat="50.30015" lon="2.75361">
        <ele>40.03</ele>
        <time>2018-08-25T14:50:34Z</time>
      </trkpt>
      <trkpt lat="50.30015" lon="2.75358">
        <ele>40.03</ele>
        <time>2018-08-25T14:50:52Z</time>
      </trkpt>
      <trkpt lat="50.30021" lon="2.75359">
        <ele>39.07</ele>
        <time>2018-08-25T14:51:16Z</time>
      </trkpt>
      <trkpt lat="50.30021" lon="2.7536">
        <ele>41.47</ele>
        <time>2018-08-25T14:51:19Z</time>
      </trkpt>
      <trkpt lat="50.3002" lon="2.75357">
        <ele>40.51</ele>
        <time>2018-08-25T14:51:41Z</time>
      </trkpt>
      <trkpt lat="50.30016" lon="2.75362">
        <ele>40.99</ele>
        <time>2018-08-25T14:52:03Z</time>
      </trkpt>
      <trkpt lat="50.3001" lon="2.75355">
        <ele>42.44</ele>
        <time>2018-08-25T14:52:22Z</time>
      </trkpt>
      <trkpt lat="50.29998" lon="2.75351">
        <ele>42.92</ele>
        <time>2018-08-25T14:52:43Z</time>
      </trkpt>
      <trkpt lat="50.30004" lon="2.75337">
        <ele>42.92</ele>
        <time>2018-08-25T14:52:58Z</time>
      </trkpt>
      <trkpt lat="50.30014" lon="2.75314">
        <ele>42.92</ele>
        <time>2018-08-25T14:53:16Z</time>
      </trkpt>
      <trkpt lat="50.30008" lon="2.7529">
        <ele>42.92</ele>
        <time>2018-08-25T14:53:31Z</time>
      </trkpt>
      <trkpt lat="50.30008" lon="2.75281">
        <ele>42.92</ele>
        <time>2018-08-25T14:53:37Z</time>
      </trkpt>
      <trkpt lat="50.3001" lon="2.75278">
        <ele>42.92</ele>
        <time>2018-08-25T14:53:39Z</time>
      </trkpt>
      <trkpt lat="50.30024" lon="2.75266">
        <ele>43.4</ele>
        <time>2018-08-25T14:53:57Z</time>
      </trkpt>
      <trkpt lat="50.30042" lon="2.75253">
        <ele>41.95</ele>
        <time>2018-08-25T14:54:15Z</time>
      </trkpt>
      <trkpt lat="50.30068" lon="2.75236">
        <ele>41.95</ele>
        <time>2018-08-25T14:54:39Z</time>
      </trkpt>
      <trkpt lat="50.30092" lon="2.75225">
        <ele>41.95</ele>
        <time>2018-08-25T14:55:02Z</time>
      </trkpt>
      <trkpt lat="50.30113" lon="2.75212">
        <ele>41.95</ele>
        <time>2018-08-25T14:55:21Z</time>
      </trkpt>
      <trkpt lat="50.30131" lon="2.75199">
        <ele>41.95</ele>
        <time>2018-08-25T14:55:42Z</time>
      </trkpt>
      <trkpt lat="50.30157" lon="2.75173">
        <ele>42.92</ele>
        <time>2018-08-25T14:56:05Z</time>
      </trkpt>
      <trkpt lat="50.30161" lon="2.75172">
        <ele>42.92</ele>
        <time>2018-08-25T14:56:26Z</time>
      </trkpt>
      <trkpt lat="50.30163" lon="2.75175">
        <ele>42.92</ele>
        <time>2018-08-25T14:56:55Z</time>
      </trkpt>
      <trkpt lat="50.30163" lon="2.7517">
        <ele>42.92</ele>
        <time>2018-08-25T14:57:26Z</time>
      </trkpt>
      <trkpt lat="50.3016" lon="2.75167">
        <ele>42.92</ele>
        <time>2018-08-25T14:57:56Z</time>
      </trkpt>
      <trkpt lat="50.30174" lon="2.75156">
        <ele>42.44</ele>
        <time>2018-08-25T14:58:18Z</time>
      </trkpt>
      <trkpt lat="50.30193" lon="2.75139">
        <ele>42.44</ele>
        <time>2018-08-25T14:58:39Z</time>
      </trkpt>
      <trkpt lat="50.30202" lon="2.75124">
        <ele>42.44</ele>
        <time>2018-08-25T14:58:50Z</time>
      </trkpt>
      <trkpt lat="50.3022" lon="2.75102">
        <ele>44.36</ele>
        <time>2018-08-25T14:59:11Z</time>
      </trkpt>
      <trkpt lat="50.30243" lon="2.75076">
        <ele>44.84</ele>
        <time>2018-08-25T14:59:34Z</time>
      </trkpt>
      <trkpt lat="50.3026" lon="2.75055">
        <ele>45.32</ele>
        <time>2018-08-25T14:59:54Z</time>
      </trkpt>
      <trkpt lat="50.30282" lon="2.75029">
        <ele>45.8</ele>
        <time>2018-08-25T15:00:17Z</time>
      </trkpt>
      <trkpt lat="50.303" lon="2.75008">
        <ele>46.28</ele>
        <time>2018-08-25T15:00:38Z</time>
      </trkpt>
      <trkpt lat="50.3032" lon="2.74985">
        <ele>46.28</ele>
        <time>2018-08-25T15:00:57Z</time>
      </trkpt>
      <trkpt lat="50.30338" lon="2.74965">
        <ele>47.24</ele>
        <time>2018-08-25T15:01:20Z</time>
      </trkpt>
      <trkpt lat="50.30355" lon="2.74942">
        <ele>47.24</ele>
        <time>2018-08-25T15:01:39Z</time>
      </trkpt>
      <trkpt lat="50.30374" lon="2.74914">
        <ele>47.72</ele>
        <time>2018-08-25T15:02:01Z</time>
      </trkpt>
      <trkpt lat="50.30395" lon="2.74893">
        <ele>48.2</ele>
        <time>2018-08-25T15:02:18Z</time>
      </trkpt>
      <trkpt lat="50.30409" lon="2.74872">
        <ele>48.68</ele>
        <time>2018-08-25T15:02:36Z</time>
      </trkpt>
      <trkpt lat="50.30427" lon="2.74846">
        <ele>49.16</ele>
        <time>2018-08-25T15:02:58Z</time>
      </trkpt>
      <trkpt lat="50.30434" lon="2.74836">
        <ele>48.68</ele>
        <time>2018-08-25T15:03:07Z</time>
      </trkpt>
      <trkpt lat="50.30455" lon="2.74813">
        <ele>50.61</ele>
        <time>2018-08-25T15:03:30Z</time>
      </trkpt>
      <trkpt lat="50.30476" lon="2.7478">
        <ele>50.61</ele>
        <time>2018-08-25T15:03:53Z</time>
      </trkpt>
      <trkpt lat="50.30487" lon="2.74765">
        <ele>49.16</ele>
        <time>2018-08-25T15:04:03Z</time>
      </trkpt>
      <trkpt lat="50.30509" lon="2.74732">
        <ele>48.68</ele>
        <time>2018-08-25T15:04:26Z</time>
      </trkpt>
      <trkpt lat="50.3053" lon="2.74699">
        <ele>48.68</ele>
        <time>2018-08-25T15:04:50Z</time>
      </trkpt>
      <trkpt lat="50.30546" lon="2.74673">
        <ele>47.24</ele>
        <time>2018-08-25T15:05:09Z</time>
      </trkpt>
      <trkpt lat="50.30561" lon="2.7465">
        <ele>46.28</ele>
        <time>2018-08-25T15:05:27Z</time>
      </trkpt>
      <trkpt lat="50.30573" lon="2.74624">
        <ele>45.8</ele>
        <time>2018-08-25T15:05:46Z</time>
      </trkpt>
      <trkpt lat="50.30578" lon="2.74604">
        <ele>45.8</ele>
        <time>2018-08-25T15:06:05Z</time>
      </trkpt>
      <trkpt lat="50.30582" lon="2.74577">
        <ele>45.8</ele>
        <time>2018-08-25T15:06:25Z</time>
      </trkpt>
      <trkpt lat="50.30583" lon="2.74574">
        <ele>45.8</ele>
        <time>2018-08-25T15:06:29Z</time>
      </trkpt>
      <trkpt lat="50.30597" lon="2.74547">
        <ele>45.8</ele>
        <time>2018-08-25T15:06:47Z</time>
      </trkpt>
      <trkpt lat="50.30603" lon="2.74539">
        <ele>45.8</ele>
        <time>2018-08-25T15:06:52Z</time>
      </trkpt>
      <trkpt lat="50.30622" lon="2.74512">
        <ele>45.8</ele>
        <time>2018-08-25T15:07:13Z</time>
      </trkpt>
      <trkpt lat="50.30626" lon="2.7451">
        <ele>47.24</ele>
        <time>2018-08-25T15:07:15Z</time>
      </trkpt>
      <trkpt lat="50.30648" lon="2.74489">
        <ele>47.24</ele>
        <time>2018-08-25T15:07:33Z</time>
      </trkpt>
      <trkpt lat="50.30666" lon="2.74475">
        <ele>47.24</ele>
        <time>2018-08-25T15:07:49Z</time>
      </trkpt>
      <trkpt lat="50.30684" lon="2.74465">
        <ele>47.24</ele>
        <time>2018-08-25T15:08:04Z</time>
      </trkpt>
      <trkpt lat="50.30707" lon="2.74465">
        <ele>48.2</ele>
        <time>2018-08-25T15:08:23Z</time>
      </trkpt>
      <trkpt lat="50.30728" lon="2.74475">
        <ele>48.2</ele>
        <time>2018-08-25T15:08:41Z</time>
      </trkpt>
      <trkpt lat="50.30745" lon="2.74484">
        <ele>46.76</ele>
        <time>2018-08-25T15:08:56Z</time>
      </trkpt>
      <trkpt lat="50.30763" lon="2.74496">
        <ele>46.28</ele>
        <time>2018-08-25T15:09:13Z</time>
      </trkpt>
      <trkpt lat="50.3078" lon="2.7451">
        <ele>45.8</ele>
        <time>2018-08-25T15:09:30Z</time>
      </trkpt>
      <trkpt lat="50.30788" lon="2.74516">
        <ele>45.8</ele>
        <time>2018-08-25T15:09:39Z</time>
      </trkpt>
      <trkpt lat="50.30806" lon="2.74533">
        <ele>45.8</ele>
        <time>2018-08-25T15:09:57Z</time>
      </trkpt>
      <trkpt lat="50.30821" lon="2.74555">
        <ele>45.8</ele>
        <time>2018-08-25T15:10:14Z</time>
      </trkpt>
      <trkpt lat="50.30825" lon="2.74562">
        <ele>45.8</ele>
        <time>2018-08-25T15:10:30Z</time>
      </trkpt>
      <trkpt lat="50.30837" lon="2.74582">
        <ele>45.8</ele>
        <time>2018-08-25T15:10:48Z</time>
      </trkpt>
      <trkpt lat="50.30843" lon="2.74602">
        <ele>45.8</ele>
        <time>2018-08-25T15:11:12Z</time>
      </trkpt>
      <trkpt lat="50.30853" lon="2.74639">
        <ele>45.8</ele>
        <time>2018-08-25T15:11:34Z</time>
      </trkpt>
      <trkpt lat="50.30856" lon="2.7468">
        <ele>45.32</ele>
        <time>2018-08-25T15:11:55Z</time>
      </trkpt>
      <trkpt lat="50.30856" lon="2.74732">
        <ele>45.32</ele>
        <time>2018-08-25T15:12:19Z</time>
      </trkpt>
      <trkpt lat="50.3086" lon="2.74769">
        <ele>45.32</ele>
        <time>2018-08-25T15:12:40Z</time>
      </trkpt>
      <trkpt lat="50.30862" lon="2.74808">
        <ele>45.32</ele>
        <time>2018-08-25T15:13:00Z</time>
      </trkpt>
      <trkpt lat="50.30867" lon="2.74841">
        <ele>47.24</ele>
        <time>2018-08-25T15:13:22Z</time>
      </trkpt>
      <trkpt lat="50.30879" lon="2.74863">
        <ele>45.8</ele>
        <time>2018-08-25T15:13:41Z</time>
      </trkpt>
      <trkpt lat="50.30897" lon="2.74904">
        <ele>45.32</ele>
        <time>2018-08-25T15:14:04Z</time>
      </trkpt>
      <trkpt lat="50.30907" lon="2.74924">
        <ele>45.32</ele>
        <time>2018-08-25T15:14:21Z</time>
      </trkpt>
      <trkpt lat="50.30908" lon="2.74937">
        <ele>45.32</ele>
        <time>2018-08-25T15:14:29Z</time>
      </trkpt>
      <trkpt lat="50.30905" lon="2.74941">
        <ele>46.76</ele>
        <time>2018-08-25T15:14:34Z</time>
      </trkpt>
      <trkpt lat="50.30907" lon="2.74967">
        <ele>48.2</ele>
        <time>2018-08-25T15:14:50Z</time>
      </trkpt>
      <trkpt lat="50.30905" lon="2.74991">
        <ele>48.2</ele>
        <time>2018-08-25T15:15:05Z</time>
      </trkpt>
      <trkpt lat="50.30886" lon="2.75024">
        <ele>49.16</ele>
        <time>2018-08-25T15:15:29Z</time>
      </trkpt>
      <trkpt lat="50.30866" lon="2.75053">
        <ele>49.16</ele>
        <time>2018-08-25T15:15:52Z</time>
      </trkpt>
      <trkpt lat="50.30847" lon="2.75083">
        <ele>49.16</ele>
        <time>2018-08-25T15:16:14Z</time>
      </trkpt>
      <trkpt lat="50.30843" lon="2.75092">
        <ele>49.16</ele>
        <time>2018-08-25T15:16:18Z</time>
      </trkpt>
      <trkpt lat="50.30839" lon="2.75099">
        <ele>49.16</ele>
        <time>2018-08-25T15:16:23Z</time>
      </trkpt>
      <trkpt lat="50.30828" lon="2.7512">
        <ele>49.16</ele>
        <time>2018-08-25T15:16:36Z</time>
      </trkpt>
      <trkpt lat="50.30825" lon="2.75126">
        <ele>49.16</ele>
        <time>2018-08-25T15:16:40Z</time>
      </trkpt>
      <trkpt lat="50.30811" lon="2.7515">
        <ele>49.16</ele>
        <time>2018-08-25T15:16:57Z</time>
      </trkpt>
      <trkpt lat="50.30807" lon="2.7515">
        <ele>49.16</ele>
        <time>2018-08-25T15:17:00Z</time>
      </trkpt>
      <trkpt lat="50.308" lon="2.75143">
        <ele>47.24</ele>
        <time>2018-08-25T15:17:14Z</time>
      </trkpt>
      <trkpt lat="50.30799" lon="2.75142">
        <ele>47.24</ele>
        <time>2018-08-25T15:17:15Z</time>
      </trkpt>
      <trkpt lat="50.30776" lon="2.75122">
        <ele>45.8</ele>
        <time>2018-08-25T15:17:37Z</time>
      </trkpt>
      <trkpt lat="50.30756" lon="2.75119">
        <ele>46.28</ele>
        <time>2018-08-25T15:17:55Z</time>
      </trkpt>
      <trkpt lat="50.30734" lon="2.75111">
        <ele>45.8</ele>
        <time>2018-08-25T15:18:14Z</time>
      </trkpt>
      <trkpt lat="50.30728" lon="2.75118">
        <ele>45.8</ele>
        <time>2018-08-25T15:18:21Z</time>
      </trkpt>
      <trkpt lat="50.30727" lon="2.75118">
        <ele>45.8</ele>
        <time>2018-08-25T15:18:22Z</time>
      </trkpt>
      <trkpt lat="50.3071" lon="2.75137">
        <ele>45.32</ele>
        <time>2018-08-25T15:18:37Z</time>
      </trkpt>
      <trkpt lat="50.30696" lon="2.75164">
        <ele>45.32</ele>
        <time>2018-08-25T15:18:57Z</time>
      </trkpt>
      <trkpt lat="50.3068" lon="2.75186">
        <ele>45.32</ele>
        <time>2018-08-25T15:19:16Z</time>
      </trkpt>
      <trkpt lat="50.30662" lon="2.75208">
        <ele>44.84</ele>
        <time>2018-08-25T15:19:35Z</time>
      </trkpt>
      <trkpt lat="50.30642" lon="2.75237">
        <ele>45.32</ele>
        <time>2018-08-25T15:19:57Z</time>
      </trkpt>
      <trkpt lat="50.30622" lon="2.75261">
        <ele>45.32</ele>
        <time>2018-08-25T15:20:19Z</time>
      </trkpt>
      <trkpt lat="50.30606" lon="2.75292">
        <ele>45.32</ele>
        <time>2018-08-25T15:20:40Z</time>
      </trkpt>
      <trkpt lat="50.30588" lon="2.75322">
        <ele>44.84</ele>
        <time>2018-08-25T15:21:03Z</time>
      </trkpt>
      <trkpt lat="50.30571" lon="2.75345">
        <ele>44.84</ele>
        <time>2018-08-25T15:21:25Z</time>
      </trkpt>
      <trkpt lat="50.30553" lon="2.75357">
        <ele>44.84</ele>
        <time>2018-08-25T15:21:44Z</time>
      </trkpt>
      <trkpt lat="50.30531" lon="2.75373">
        <ele>44.84</ele>
        <time>2018-08-25T15:22:02Z</time>
      </trkpt>
      <trkpt lat="50.30524" lon="2.75379">
        <ele>44.84</ele>
        <time>2018-08-25T15:22:09Z</time>
      </trkpt>
      <trkpt lat="50.305" lon="2.75397">
        <ele>44.84</ele>
        <time>2018-08-25T15:22:28Z</time>
      </trkpt>
      <trkpt lat="50.30474" lon="2.75405">
        <ele>44.84</ele>
        <time>2018-08-25T15:22:51Z</time>
      </trkpt>
      <trkpt lat="50.30454" lon="2.75421">
        <ele>44.84</ele>
        <time>2018-08-25T15:23:12Z</time>
      </trkpt>
      <trkpt lat="50.30434" lon="2.75434">
        <ele>44.84</ele>
        <time>2018-08-25T15:23:32Z</time>
      </trkpt>
      <trkpt lat="50.30406" lon="2.75452">
        <ele>44.84</ele>
        <time>2018-08-25T15:23:54Z</time>
      </trkpt>
      <trkpt lat="50.3041" lon="2.75452">
        <ele>44.36</ele>
        <time>2018-08-25T15:24:17Z</time>
      </trkpt>
      <trkpt lat="50.30362" lon="2.7549">
        <ele>44.36</ele>
        <time>2018-08-25T15:24:38Z</time>
      </trkpt>
      <trkpt lat="50.30339" lon="2.75505">
        <ele>46.28</ele>
        <time>2018-08-25T15:25:01Z</time>
      </trkpt>
      <trkpt lat="50.30312" lon="2.75521">
        <ele>45.8</ele>
        <time>2018-08-25T15:25:24Z</time>
      </trkpt>
      <trkpt lat="50.30291" lon="2.75539">
        <ele>45.8</ele>
        <time>2018-08-25T15:25:45Z</time>
      </trkpt>
      <trkpt lat="50.30272" lon="2.7555">
        <ele>45.8</ele>
        <time>2018-08-25T15:26:04Z</time>
      </trkpt>
      <trkpt lat="50.30247" lon="2.75567">
        <ele>45.8</ele>
        <time>2018-08-25T15:26:24Z</time>
      </trkpt>
      <trkpt lat="50.3023" lon="2.75593">
        <ele>44.36</ele>
        <time>2018-08-25T15:26:45Z</time>
      </trkpt>
      <trkpt lat="50.30213" lon="2.75601">
        <ele>44.36</ele>
        <time>2018-08-25T15:27:03Z</time>
      </trkpt>
      <trkpt lat="50.30195" lon="2.75617">
        <ele>43.88</ele>
        <time>2018-08-25T15:27:24Z</time>
      </trkpt>
      <trkpt lat="50.30188" lon="2.75632">
        <ele>43.88</ele>
        <time>2018-08-25T15:27:39Z</time>
      </trkpt>
      <trkpt lat="50.30172" lon="2.75631">
        <ele>43.88</ele>
        <time>2018-08-25T15:27:56Z</time>
      </trkpt>
      <trkpt lat="50.30172" lon="2.75644">
        <ele>43.4</ele>
        <time>2018-08-25T15:28:13Z</time>
      </trkpt>
      <trkpt lat="50.30192" lon="2.7566">
        <ele>42.92</ele>
        <time>2018-08-25T15:28:33Z</time>
      </trkpt>
      <trkpt lat="50.30193" lon="2.75696">
        <ele>42.92</ele>
        <time>2018-08-25T15:28:51Z</time>
      </trkpt>
      <trkpt lat="50.30202" lon="2.75718">
        <ele>42.92</ele>
        <time>2018-08-25T15:29:05Z</time>
      </trkpt>
      <trkpt lat="50.30203" lon="2.75747">
        <ele>42.92</ele>
        <time>2018-08-25T15:29:21Z</time>
      </trkpt>
      <trkpt lat="50.30189" lon="2.75778">
        <ele>42.92</ele>
        <time>2018-08-25T15:29:39Z</time>
      </trkpt>
      <trkpt lat="50.30197" lon="2.75814">
        <ele>43.4</ele>
        <time>2018-08-25T15:30:00Z</time>
      </trkpt>
      <trkpt lat="50.30215" lon="2.75826">
        <ele>43.4</ele>
        <time>2018-08-25T15:30:19Z</time>
      </trkpt>
      <trkpt lat="50.30224" lon="2.75834">
        <ele>43.4</ele>
        <time>2018-08-25T15:30:40Z</time>
      </trkpt>
      <trkpt lat="50.3024" lon="2.7586">
        <ele>43.4</ele>
        <time>2018-08-25T15:30:59Z</time>
      </trkpt>
      <trkpt lat="50.30248" lon="2.75896">
        <ele>43.4</ele>
        <time>2018-08-25T15:31:19Z</time>
      </trkpt>
      <trkpt lat="50.30258" lon="2.75918">
        <ele>43.4</ele>
        <time>2018-08-25T15:31:37Z</time>
      </trkpt>
      <trkpt lat="50.3027" lon="2.7595">
        <ele>43.4</ele>
        <time>2018-08-25T15:31:57Z</time>
      </trkpt>
      <trkpt lat="50.3027" lon="2.75994">
        <ele>43.4</ele>
        <time>2018-08-25T15:32:21Z</time>
      </trkpt>
      <trkpt lat="50.30261" lon="2.76033">
        <ele>43.4</ele>
        <time>2018-08-25T15:32:41Z</time>
      </trkpt>
      <trkpt lat="50.30263" lon="2.76066">
        <ele>43.4</ele>
        <time>2018-08-25T15:33:03Z</time>
      </trkpt>
      <trkpt lat="50.30262" lon="2.761">
        <ele>43.4</ele>
        <time>2018-08-25T15:33:22Z</time>
      </trkpt>
      <trkpt lat="50.30262" lon="2.7613">
        <ele>43.4</ele>
        <time>2018-08-25T15:33:41Z</time>
      </trkpt>
      <trkpt lat="50.30282" lon="2.76143">
        <ele>44.84</ele>
        <time>2018-08-25T15:34:03Z</time>
      </trkpt>
      <trkpt lat="50.30309" lon="2.7614">
        <ele>45.32</ele>
        <time>2018-08-25T15:34:30Z</time>
      </trkpt>
      <trkpt lat="50.30318" lon="2.7614">
        <ele>45.32</ele>
        <time>2018-08-25T15:34:39Z</time>
      </trkpt>
      <trkpt lat="50.30349" lon="2.76148">
        <ele>45.8</ele>
        <time>2018-08-25T15:35:01Z</time>
      </trkpt>
      <trkpt lat="50.30364" lon="2.76165">
        <ele>46.76</ele>
        <time>2018-08-25T15:35:19Z</time>
      </trkpt>
      <trkpt lat="50.30363" lon="2.76204">
        <ele>46.76</ele>
        <time>2018-08-25T15:35:39Z</time>
      </trkpt>
      <trkpt lat="50.30364" lon="2.76222">
        <ele>46.76</ele>
        <time>2018-08-25T15:35:48Z</time>
      </trkpt>
      <trkpt lat="50.30361" lon="2.76236">
        <ele>46.76</ele>
        <time>2018-08-25T15:35:56Z</time>
      </trkpt>
      <trkpt lat="50.3036" lon="2.76272">
        <ele>46.76</ele>
        <time>2018-08-25T15:36:16Z</time>
      </trkpt>
      <trkpt lat="50.30358" lon="2.76302">
        <ele>45.8</ele>
        <time>2018-08-25T15:36:36Z</time>
      </trkpt>
      <trkpt lat="50.30357" lon="2.76303">
        <ele>45.8</ele>
        <time>2018-08-25T15:36:37Z</time>
      </trkpt>
      <trkpt lat="50.30335" lon="2.76336">
        <ele>45.8</ele>
        <time>2018-08-25T15:36:56Z</time>
      </trkpt>
      <trkpt lat="50.30331" lon="2.76346">
        <ele>45.8</ele>
        <time>2018-08-25T15:37:16Z</time>
      </trkpt>
      <trkpt lat="50.30326" lon="2.76347">
        <ele>45.8</ele>
        <time>2018-08-25T15:37:20Z</time>
      </trkpt>
      <trkpt lat="50.30298" lon="2.76338">
        <ele>45.32</ele>
        <time>2018-08-25T15:37:41Z</time>
      </trkpt>
      <trkpt lat="50.30297" lon="2.76354">
        <ele>44.84</ele>
        <time>2018-08-25T15:37:53Z</time>
      </trkpt>
      <trkpt lat="50.30302" lon="2.76386">
        <ele>46.28</ele>
        <time>2018-08-25T15:38:08Z</time>
      </trkpt>
      <trkpt lat="50.30305" lon="2.764">
        <ele>46.28</ele>
        <time>2018-08-25T15:38:14Z</time>
      </trkpt>
      <trkpt lat="50.30309" lon="2.76417">
        <ele>46.28</ele>
        <time>2018-08-25T15:38:23Z</time>
      </trkpt>
      <trkpt lat="50.30321" lon="2.76445">
        <ele>46.28</ele>
        <time>2018-08-25T15:38:42Z</time>
      </trkpt>
      <trkpt lat="50.30322" lon="2.7645">
        <ele>46.28</ele>
        <time>2018-08-25T15:38:46Z</time>
      </trkpt>
      <trkpt lat="50.30323" lon="2.76459">
        <ele>46.28</ele>
        <time>2018-08-25T15:38:51Z</time>
      </trkpt>
      <trkpt lat="50.30324" lon="2.76495">
        <ele>45.32</ele>
        <time>2018-08-25T15:39:10Z</time>
      </trkpt>
      <trkpt lat="50.30328" lon="2.76538">
        <ele>45.32</ele>
        <time>2018-08-25T15:39:32Z</time>
      </trkpt>
      <trkpt lat="50.30332" lon="2.76561">
        <ele>45.32</ele>
        <time>2018-08-25T15:39:46Z</time>
      </trkpt>
      <trkpt lat="50.30337" lon="2.76593">
        <ele>45.32</ele>
        <time>2018-08-25T15:40:05Z</time>
      </trkpt>
      <trkpt lat="50.30341" lon="2.76615">
        <ele>45.32</ele>
        <time>2018-08-25T15:40:17Z</time>
      </trkpt>
      <trkpt lat="50.30351" lon="2.76653">
        <ele>45.32</ele>
        <time>2018-08-25T15:40:38Z</time>
      </trkpt>
      <trkpt lat="50.3036" lon="2.76685">
        <ele>45.8</ele>
        <time>2018-08-25T15:40:58Z</time>
      </trkpt>
      <trkpt lat="50.30368" lon="2.76715">
        <ele>45.8</ele>
        <time>2018-08-25T15:41:15Z</time>
      </trkpt>
      <trkpt lat="50.30372" lon="2.76756">
        <ele>45.32</ele>
        <time>2018-08-25T15:41:37Z</time>
      </trkpt>
      <trkpt lat="50.3038" lon="2.76794">
        <ele>45.8</ele>
        <time>2018-08-25T15:41:57Z</time>
      </trkpt>
      <trkpt lat="50.30382" lon="2.76825">
        <ele>46.76</ele>
        <time>2018-08-25T15:42:17Z</time>
      </trkpt>
      <trkpt lat="50.30382" lon="2.76827">
        <ele>46.76</ele>
        <time>2018-08-25T15:42:18Z</time>
      </trkpt>
      <trkpt lat="50.30382" lon="2.76862">
        <ele>46.76</ele>
        <time>2018-08-25T15:42:38Z</time>
      </trkpt>
      <trkpt lat="50.30381" lon="2.7687">
        <ele>46.76</ele>
        <time>2018-08-25T15:42:42Z</time>
      </trkpt>
      <trkpt lat="50.3038" lon="2.76895">
        <ele>46.76</ele>
        <time>2018-08-25T15:42:55Z</time>
      </trkpt>
      <trkpt lat="50.30373" lon="2.7693">
        <ele>46.76</ele>
        <time>2018-08-25T15:43:12Z</time>
      </trkpt>
      <trkpt lat="50.3036" lon="2.76958">
        <ele>45.32</ele>
        <time>2018-08-25T15:43:30Z</time>
      </trkpt>
      <trkpt lat="50.30354" lon="2.76986">
        <ele>45.32</ele>
        <time>2018-08-25T15:43:48Z</time>
      </trkpt>
      <trkpt lat="50.3035" lon="2.7699">
        <ele>45.32</ele>
        <time>2018-08-25T15:44:05Z</time>
      </trkpt>
      <trkpt lat="50.3034" lon="2.77021">
        <ele>44.84</ele>
        <time>2018-08-25T15:44:23Z</time>
      </trkpt>
      <trkpt lat="50.30328" lon="2.7706">
        <ele>44.84</ele>
        <time>2018-08-25T15:44:45Z</time>
      </trkpt>
      <trkpt lat="50.3032" lon="2.77088">
        <ele>44.84</ele>
        <time>2018-08-25T15:45:04Z</time>
      </trkpt>
      <trkpt lat="50.30311" lon="2.77114">
        <ele>44.84</ele>
        <time>2018-08-25T15:45:20Z</time>
      </trkpt>
      <trkpt lat="50.30309" lon="2.77118">
        <ele>44.84</ele>
        <time>2018-08-25T15:45:22Z</time>
      </trkpt>
      <trkpt lat="50.30298" lon="2.77158">
        <ele>44.84</ele>
        <time>2018-08-25T15:45:43Z</time>
      </trkpt>
      <trkpt lat="50.30289" lon="2.77185">
        <ele>44.36</ele>
        <time>2018-08-25T15:45:59Z</time>
      </trkpt>
      <trkpt lat="50.30274" lon="2.77209">
        <ele>44.36</ele>
        <time>2018-08-25T15:46:20Z</time>
      </trkpt>
      <trkpt lat="50.30259" lon="2.77236">
        <ele>44.36</ele>
        <time>2018-08-25T15:46:38Z</time>
      </trkpt>
      <trkpt lat="50.30239" lon="2.77266">
        <ele>45.32</ele>
        <time>2018-08-25T15:46:59Z</time>
      </trkpt>
      <trkpt lat="50.30224" lon="2.77288">
        <ele>45.32</ele>
        <time>2018-08-25T15:47:17Z</time>
      </trkpt>
      <trkpt lat="50.30218" lon="2.77302">
        <ele>45.32</ele>
        <time>2018-08-25T15:47:37Z</time>
      </trkpt>
      <trkpt lat="50.30217" lon="2.77302">
        <ele>44.36</ele>
        <time>2018-08-25T15:47:39Z</time>
      </trkpt>
      <trkpt lat="50.30211" lon="2.77311">
        <ele>44.36</ele>
        <time>2018-08-25T15:48:00Z</time>
      </trkpt>
      <trkpt lat="50.302" lon="2.77317">
        <ele>45.32</ele>
        <time>2018-08-25T15:48:17Z</time>
      </trkpt>
      <trkpt lat="50.30189" lon="2.77333">
        <ele>45.8</ele>
        <time>2018-08-25T15:48:35Z</time>
      </trkpt>
      <trkpt lat="50.30174" lon="2.77362">
        <ele>46.28</ele>
        <time>2018-08-25T15:48:57Z</time>
      </trkpt>
      <trkpt lat="50.30158" lon="2.7739">
        <ele>46.28</ele>
        <time>2018-08-25T15:49:19Z</time>
      </trkpt>
      <trkpt lat="50.30146" lon="2.77414">
        <ele>46.28</ele>
        <time>2018-08-25T15:49:38Z</time>
      </trkpt>
      <trkpt lat="50.30134" lon="2.77436">
        <ele>45.32</ele>
        <time>2018-08-25T15:49:53Z</time>
      </trkpt>
      <trkpt lat="50.30134" lon="2.77437">
        <ele>45.32</ele>
        <time>2018-08-25T15:49:54Z</time>
      </trkpt>
      <trkpt lat="50.3012" lon="2.77466">
        <ele>45.32</ele>
        <time>2018-08-25T15:50:15Z</time>
      </trkpt>
      <trkpt lat="50.30111" lon="2.77493">
        <ele>45.32</ele>
        <time>2018-08-25T15:50:33Z</time>
      </trkpt>
      <trkpt lat="50.30101" lon="2.77524">
        <ele>44.84</ele>
        <time>2018-08-25T15:50:53Z</time>
      </trkpt>
      <trkpt lat="50.30085" lon="2.77536">
        <ele>44.84</ele>
        <time>2018-08-25T15:51:11Z</time>
      </trkpt>
      <trkpt lat="50.30067" lon="2.7754">
        <ele>44.84</ele>
        <time>2018-08-25T15:51:28Z</time>
      </trkpt>
      <trkpt lat="50.3006" lon="2.77535">
        <ele>44.36</ele>
        <time>2018-08-25T15:51:35Z</time>
      </trkpt>
      <trkpt lat="50.30054" lon="2.77528">
        <ele>43.88</ele>
        <time>2018-08-25T15:51:39Z</time>
      </trkpt>
      <trkpt lat="50.30046" lon="2.77497">
        <ele>44.36</ele>
        <time>2018-08-25T15:51:53Z</time>
      </trkpt>
      <trkpt lat="50.30043" lon="2.77497">
        <ele>44.36</ele>
        <time>2018-08-25T15:52:12Z</time>
      </trkpt>
      <trkpt lat="50.30026" lon="2.77474">
        <ele>44.36</ele>
        <time>2018-08-25T15:52:32Z</time>
      </trkpt>
      <trkpt lat="50.30015" lon="2.77445">
        <ele>45.32</ele>
        <time>2018-08-25T15:52:51Z</time>
      </trkpt>
      <trkpt lat="50.30003" lon="2.77422">
        <ele>45.32</ele>
        <time>2018-08-25T15:53:06Z</time>
      </trkpt>
      <trkpt lat="50.29987" lon="2.77426">
        <ele>45.32</ele>
        <time>2018-08-25T15:53:24Z</time>
      </trkpt>
      <trkpt lat="50.29985" lon="2.77434">
        <ele>43.88</ele>
        <time>2018-08-25T15:53:29Z</time>
      </trkpt>
      <trkpt lat="50.29972" lon="2.77457">
        <ele>43.88</ele>
        <time>2018-08-25T15:53:48Z</time>
      </trkpt>
      <trkpt lat="50.29961" lon="2.77476">
        <ele>43.88</ele>
        <time>2018-08-25T15:54:05Z</time>
      </trkpt>
      <trkpt lat="50.29956" lon="2.7749">
        <ele>43.4</ele>
        <time>2018-08-25T15:54:14Z</time>
      </trkpt>
      <trkpt lat="50.29945" lon="2.77516">
        <ele>43.4</ele>
        <time>2018-08-25T15:54:30Z</time>
      </trkpt>
      <trkpt lat="50.29926" lon="2.7754">
        <ele>43.4</ele>
        <time>2018-08-25T15:54:51Z</time>
      </trkpt>
      <trkpt lat="50.29911" lon="2.77566">
        <ele>43.88</ele>
        <time>2018-08-25T15:55:14Z</time>
      </trkpt>
      <trkpt lat="50.299" lon="2.77593">
        <ele>43.4</ele>
        <time>2018-08-25T15:55:39Z</time>
      </trkpt>
      <trkpt lat="50.29889" lon="2.77615">
        <ele>43.4</ele>
        <time>2018-08-25T15:55:58Z</time>
      </trkpt>
      <trkpt lat="50.29875" lon="2.77639">
        <ele>43.4</ele>
        <time>2018-08-25T15:56:19Z</time>
      </trkpt>
      <trkpt lat="50.29858" lon="2.77628">
        <ele>44.36</ele>
        <time>2018-08-25T15:56:36Z</time>
      </trkpt>
      <trkpt lat="50.29852" lon="2.77611">
        <ele>44.36</ele>
        <time>2018-08-25T15:56:53Z</time>
      </trkpt>
      <trkpt lat="50.29838" lon="2.77587">
        <ele>44.36</ele>
        <time>2018-08-25T15:57:13Z</time>
      </trkpt>
      <trkpt lat="50.29818" lon="2.77573">
        <ele>44.36</ele>
        <time>2018-08-25T15:57:33Z</time>
      </trkpt>
      <trkpt lat="50.29809" lon="2.77573">
        <ele>44.36</ele>
        <time>2018-08-25T15:57:41Z</time>
      </trkpt>
      <trkpt lat="50.29794" lon="2.77575">
        <ele>44.36</ele>
        <time>2018-08-25T15:57:55Z</time>
      </trkpt>
      <trkpt lat="50.2978" lon="2.77577">
        <ele>44.36</ele>
        <time>2018-08-25T15:58:08Z</time>
      </trkpt>
      <trkpt lat="50.29769" lon="2.77582">
        <ele>45.32</ele>
        <time>2018-08-25T15:58:18Z</time>
      </trkpt>
      <trkpt lat="50.29751" lon="2.77588">
        <ele>46.76</ele>
        <time>2018-08-25T15:58:34Z</time>
      </trkpt>
      <trkpt lat="50.29736" lon="2.77591">
        <ele>48.68</ele>
        <time>2018-08-25T15:58:49Z</time>
      </trkpt>
      <trkpt lat="50.29733" lon="2.77594">
        <ele>49.16</ele>
        <time>2018-08-25T15:58:53Z</time>
      </trkpt>
      <trkpt lat="50.29732" lon="2.77596">
        <ele>49.16</ele>
        <time>2018-08-25T15:58:55Z</time>
      </trkpt>
      <trkpt lat="50.29731" lon="2.77622">
        <ele>49.65</ele>
        <time>2018-08-25T15:59:10Z</time>
      </trkpt>
      <trkpt lat="50.29723" lon="2.77643">
        <ele>49.65</ele>
        <time>2018-08-25T15:59:24Z</time>
      </trkpt>
      <trkpt lat="50.29718" lon="2.77672">
        <ele>48.68</ele>
        <time>2018-08-25T15:59:41Z</time>
      </trkpt>
      <trkpt lat="50.29718" lon="2.7769">
        <ele>48.68</ele>
        <time>2018-08-25T15:59:59Z</time>
      </trkpt>
      <trkpt lat="50.29713" lon="2.77689">
        <ele>48.68</ele>
        <time>2018-08-25T16:00:08Z</time>
      </trkpt>
      <trkpt lat="50.29697" lon="2.77687">
        <ele>48.2</ele>
        <time>2018-08-25T16:00:25Z</time>
      </trkpt>
      <trkpt lat="50.29671" lon="2.77695">
        <ele>47.72</ele>
        <time>2018-08-25T16:00:48Z</time>
      </trkpt>
      <trkpt lat="50.2965" lon="2.77701">
        <ele>46.76</ele>
        <time>2018-08-25T16:01:07Z</time>
      </trkpt>
      <trkpt lat="50.29635" lon="2.77677">
        <ele>46.28</ele>
        <time>2018-08-25T16:01:26Z</time>
      </trkpt>
      <trkpt lat="50.29628" lon="2.77644">
        <ele>44.84</ele>
        <time>2018-08-25T16:01:45Z</time>
      </trkpt>
      <trkpt lat="50.29622" lon="2.77621">
        <ele>45.32</ele>
        <time>2018-08-25T16:02:00Z</time>
      </trkpt>
      <trkpt lat="50.2962" lon="2.77615">
        <ele>45.32</ele>
        <time>2018-08-25T16:02:03Z</time>
      </trkpt>
      <trkpt lat="50.29616" lon="2.77585">
        <ele>45.8</ele>
        <time>2018-08-25T16:02:21Z</time>
      </trkpt>
      <trkpt lat="50.29622" lon="2.77556">
        <ele>46.28</ele>
        <time>2018-08-25T16:02:38Z</time>
      </trkpt>
      <trkpt lat="50.29612" lon="2.77537">
        <ele>46.28</ele>
        <time>2018-08-25T16:02:54Z</time>
      </trkpt>
      <trkpt lat="50.29593" lon="2.77527">
        <ele>46.76</ele>
        <time>2018-08-25T16:03:15Z</time>
      </trkpt>
      <trkpt lat="50.2958" lon="2.77523">
        <ele>47.24</ele>
        <time>2018-08-25T16:03:29Z</time>
      </trkpt>
      <trkpt lat="50.29562" lon="2.77516">
        <ele>45.8</ele>
        <time>2018-08-25T16:03:44Z</time>
      </trkpt>
      <trkpt lat="50.29554" lon="2.77517">
        <ele>46.76</ele>
        <time>2018-08-25T16:03:55Z</time>
      </trkpt>
      <trkpt lat="50.2953" lon="2.77526">
        <ele>46.76</ele>
        <time>2018-08-25T16:04:12Z</time>
      </trkpt>
      <trkpt lat="50.29516" lon="2.77527">
        <ele>45.8</ele>
        <time>2018-08-25T16:04:32Z</time>
      </trkpt>
      <trkpt lat="50.29492" lon="2.77516">
        <ele>47.24</ele>
        <time>2018-08-25T16:04:53Z</time>
      </trkpt>
      <trkpt lat="50.29474" lon="2.7753">
        <ele>47.24</ele>
        <time>2018-08-25T16:05:10Z</time>
      </trkpt>
      <trkpt lat="50.29458" lon="2.77544">
        <ele>47.72</ele>
        <time>2018-08-25T16:05:30Z</time>
      </trkpt>
      <trkpt lat="50.29436" lon="2.7756">
        <ele>49.65</ele>
        <time>2018-08-25T16:05:54Z</time>
      </trkpt>
      <trkpt lat="50.29417" lon="2.77572">
        <ele>51.09</ele>
        <time>2018-08-25T16:06:14Z</time>
      </trkpt>
      <trkpt lat="50.29398" lon="2.77576">
        <ele>52.05</ele>
        <time>2018-08-25T16:06:35Z</time>
      </trkpt>
      <trkpt lat="50.29378" lon="2.7758">
        <ele>53.01</ele>
        <time>2018-08-25T16:06:54Z</time>
      </trkpt>
      <trkpt lat="50.2935" lon="2.77587">
        <ele>53.01</ele>
        <time>2018-08-25T16:07:19Z</time>
      </trkpt>
      <trkpt lat="50.29343" lon="2.7755">
        <ele>52.05</ele>
        <time>2018-08-25T16:07:40Z</time>
      </trkpt>
      <trkpt lat="50.2933" lon="2.77537">
        <ele>51.57</ele>
        <time>2018-08-25T16:07:58Z</time>
      </trkpt>
      <trkpt lat="50.29323" lon="2.77545">
        <ele>52.53</ele>
        <time>2018-08-25T16:08:10Z</time>
      </trkpt>
      <trkpt lat="50.2931" lon="2.77564">
        <ele>53.01</ele>
        <time>2018-08-25T16:08:29Z</time>
      </trkpt>
      <trkpt lat="50.29302" lon="2.77576">
        <ele>53.49</ele>
        <time>2018-08-25T16:08:43Z</time>
      </trkpt>
      <trkpt lat="50.29283" lon="2.77582">
        <ele>54.45</ele>
        <time>2018-08-25T16:08:58Z</time>
      </trkpt>
      <trkpt lat="50.29271" lon="2.77569">
        <ele>55.41</ele>
        <time>2018-08-25T16:09:12Z</time>
      </trkpt>
      <trkpt lat="50.29269" lon="2.77552">
        <ele>55.41</ele>
        <time>2018-08-25T16:09:35Z</time>
      </trkpt>
      <trkpt lat="50.29246" lon="2.77538">
        <ele>56.37</ele>
        <time>2018-08-25T16:09:50Z</time>
      </trkpt>
      <trkpt lat="50.29235" lon="2.77533">
        <ele>56.37</ele>
        <time>2018-08-25T16:10:07Z</time>
      </trkpt>
      <trkpt lat="50.29225" lon="2.77514">
        <ele>56.86</ele>
        <time>2018-08-25T16:10:18Z</time>
      </trkpt>
      <trkpt lat="50.29216" lon="2.77501">
        <ele>56.86</ele>
        <time>2018-08-25T16:10:30Z</time>
      </trkpt>
      <trkpt lat="50.29201" lon="2.77491">
        <ele>55.89</ele>
        <time>2018-08-25T16:10:45Z</time>
      </trkpt>
      <trkpt lat="50.29186" lon="2.77468">
        <ele>55.89</ele>
        <time>2018-08-25T16:11:03Z</time>
      </trkpt>
      <trkpt lat="50.2917" lon="2.77457">
        <ele>55.89</ele>
        <time>2018-08-25T16:11:22Z</time>
      </trkpt>
      <trkpt lat="50.29156" lon="2.77444">
        <ele>55.41</ele>
        <time>2018-08-25T16:11:34Z</time>
      </trkpt>
      <trkpt lat="50.29139" lon="2.77423">
        <ele>55.41</ele>
        <time>2018-08-25T16:11:52Z</time>
      </trkpt>
      <trkpt lat="50.29121" lon="2.77416">
        <ele>54.93</ele>
        <time>2018-08-25T16:12:09Z</time>
      </trkpt>
      <trkpt lat="50.2911" lon="2.77436">
        <ele>54.93</ele>
        <time>2018-08-25T16:12:25Z</time>
      </trkpt>
      <trkpt lat="50.29102" lon="2.77454">
        <ele>56.37</ele>
        <time>2018-08-25T16:12:40Z</time>
      </trkpt>
      <trkpt lat="50.29088" lon="2.77479">
        <ele>56.37</ele>
        <time>2018-08-25T16:12:57Z</time>
      </trkpt>
      <trkpt lat="50.29077" lon="2.77502">
        <ele>56.86</ele>
        <time>2018-08-25T16:13:14Z</time>
      </trkpt>
      <trkpt lat="50.2907" lon="2.77525">
        <ele>56.86</ele>
        <time>2018-08-25T16:13:30Z</time>
      </trkpt>
      <trkpt lat="50.29058" lon="2.77546">
        <ele>56.86</ele>
        <time>2018-08-25T16:13:46Z</time>
      </trkpt>
      <trkpt lat="50.29048" lon="2.77572">
        <ele>56.86</ele>
        <time>2018-08-25T16:14:03Z</time>
      </trkpt>
      <trkpt lat="50.29042" lon="2.77594">
        <ele>56.86</ele>
        <time>2018-08-25T16:14:20Z</time>
      </trkpt>
      <trkpt lat="50.2905" lon="2.776">
        <ele>57.34</ele>
        <time>2018-08-25T16:14:38Z</time>
      </trkpt>
      <trkpt lat="50.29066" lon="2.77624">
        <ele>56.86</ele>
        <time>2018-08-25T16:14:58Z</time>
      </trkpt>
      <trkpt lat="50.29073" lon="2.77656">
        <ele>57.34</ele>
        <time>2018-08-25T16:15:16Z</time>
      </trkpt>
      <trkpt lat="50.29083" lon="2.77682">
        <ele>59.26</ele>
        <time>2018-08-25T16:15:37Z</time>
      </trkpt>
      <trkpt lat="50.29081" lon="2.77687">
        <ele>59.26</ele>
        <time>2018-08-25T16:15:54Z</time>
      </trkpt>
      <trkpt lat="50.29097" lon="2.777">
        <ele>57.82</ele>
        <time>2018-08-25T16:16:12Z</time>
      </trkpt>
      <trkpt lat="50.29099" lon="2.77702">
        <ele>59.26</ele>
        <time>2018-08-25T16:16:15Z</time>
      </trkpt>
      <trkpt lat="50.29099" lon="2.77715">
        <ele>59.74</ele>
        <time>2018-08-25T16:16:33Z</time>
      </trkpt>
      <trkpt lat="50.291" lon="2.77722">
        <ele>59.74</ele>
        <time>2018-08-25T16:16:54Z</time>
      </trkpt>
      <trkpt lat="50.291" lon="2.77728">
        <ele>59.74</ele>
        <time>2018-08-25T16:17:14Z</time>
      </trkpt>
      <trkpt lat="50.29095" lon="2.77742">
        <ele>59.74</ele>
        <time>2018-08-25T16:17:26Z</time>
      </trkpt>
      <trkpt lat="50.29086" lon="2.77764">
        <ele>60.22</ele>
        <time>2018-08-25T16:17:44Z</time>
      </trkpt>
      <trkpt lat="50.29087" lon="2.77774">
        <ele>60.22</ele>
        <time>2018-08-25T16:18:04Z</time>
      </trkpt>
      <trkpt lat="50.29087" lon="2.77776">
        <ele>60.7</ele>
        <time>2018-08-25T16:18:24Z</time>
      </trkpt>
      <trkpt lat="50.29083" lon="2.77783">
        <ele>61.18</ele>
        <time>2018-08-25T16:18:47Z</time>
      </trkpt>
      <trkpt lat="50.29082" lon="2.77786">
        <ele>61.18</ele>
        <time>2018-08-25T16:19:10Z</time>
      </trkpt>
      <trkpt lat="50.29082" lon="2.77793">
        <ele>61.18</ele>
        <time>2018-08-25T16:19:32Z</time>
      </trkpt>
      <trkpt lat="50.29078" lon="2.77797">
        <ele>61.18</ele>
        <time>2018-08-25T16:19:48Z</time>
      </trkpt>
      <trkpt lat="50.29077" lon="2.77802">
        <ele>61.66</ele>
        <time>2018-08-25T16:20:13Z</time>
      </trkpt>
      <trkpt lat="50.29076" lon="2.77811">
        <ele>61.66</ele>
        <time>2018-08-25T16:20:31Z</time>
      </trkpt>
      <trkpt lat="50.29077" lon="2.77811">
        <ele>61.66</ele>
        <time>2018-08-25T16:20:54Z</time>
      </trkpt>
      <trkpt lat="50.29068" lon="2.77814">
        <ele>61.66</ele>
        <time>2018-08-25T16:21:14Z</time>
      </trkpt>
      <trkpt lat="50.29057" lon="2.77821">
        <ele>62.14</ele>
        <time>2018-08-25T16:21:34Z</time>
      </trkpt>
      <trkpt lat="50.29056" lon="2.77805">
        <ele>61.18</ele>
        <time>2018-08-25T16:21:54Z</time>
      </trkpt>
      <trkpt lat="50.29055" lon="2.77796">
        <ele>60.7</ele>
        <time>2018-08-25T16:22:15Z</time>
      </trkpt>
      <trkpt lat="50.29059" lon="2.77798">
        <ele>60.7</ele>
        <time>2018-08-25T16:22:35Z</time>
      </trkpt>
      <trkpt lat="50.29058" lon="2.77797">
        <ele>60.7</ele>
        <time>2018-08-25T16:22:55Z</time>
      </trkpt>
      <trkpt lat="50.2906" lon="2.77798">
        <ele>60.7</ele>
        <time>2018-08-25T16:23:17Z</time>
      </trkpt>
      <trkpt lat="50.29062" lon="2.77798">
        <ele>61.18</ele>
        <time>2018-08-25T16:23:37Z</time>
      </trkpt>
      <trkpt lat="50.2907" lon="2.77799">
        <ele>61.18</ele>
        <time>2018-08-25T16:23:52Z</time>
      </trkpt>
      <trkpt lat="50.2906" lon="2.77799">
        <ele>61.18</ele>
        <time>2018-08-25T16:24:22Z</time>
      </trkpt>
      <trkpt lat="50.29064" lon="2.77802">
        <ele>61.66</ele>
        <time>2018-08-25T16:24:58Z</time>
      </trkpt>
      <trkpt lat="50.29071" lon="2.77801">
        <ele>62.14</ele>
        <time>2018-08-25T16:25:33Z</time>
      </trkpt>
      <trkpt lat="50.2907" lon="2.77801">
        <ele>62.14</ele>
        <time>2018-08-25T16:26:11Z</time>
      </trkpt>
      <trkpt lat="50.29056" lon="2.77798">
        <ele>62.62</ele>
        <time>2018-08-25T16:26:39Z</time>
      </trkpt>
      <trkpt lat="50.29057" lon="2.77797">
        <ele>62.14</ele>
        <time>2018-08-25T16:27:05Z</time>
      </trkpt>
      <trkpt lat="50.29058" lon="2.77797">
        <ele>63.1</ele>
        <time>2018-08-25T16:27:34Z</time>
      </trkpt>
      <trkpt lat="50.29059" lon="2.77801">
        <ele>63.58</ele>
        <time>2018-08-25T16:27:52Z</time>
      </trkpt>
      <trkpt lat="50.29061" lon="2.77799">
        <ele>62.14</ele>
        <time>2018-08-25T16:28:12Z</time>
      </trkpt>
      <trkpt lat="50.29069" lon="2.77802">
        <ele>62.62</ele>
        <time>2018-08-25T16:28:44Z</time>
      </trkpt>
      <trkpt lat="50.29067" lon="2.77801">
        <ele>63.1</ele>
        <time>2018-08-25T16:29:29Z</time>
      </trkpt>
      <trkpt lat="50.29065" lon="2.77802">
        <ele>63.1</ele>
        <time>2018-08-25T16:29:58Z</time>
      </trkpt>
      <trkpt lat="50.29071" lon="2.77803">
        <ele>63.1</ele>
        <time>2018-08-25T16:30:28Z</time>
      </trkpt>
      <trkpt lat="50.29066" lon="2.77803">
        <ele>63.58</ele>
        <time>2018-08-25T16:30:57Z</time>
      </trkpt>
      <trkpt lat="50.29062" lon="2.77802">
        <ele>63.58</ele>
        <time>2018-08-25T16:31:33Z</time>
      </trkpt>
      <trkpt lat="50.29067" lon="2.77801">
        <ele>63.58</ele>
        <time>2018-08-25T16:32:12Z</time>
      </trkpt>
      <trkpt lat="50.29064" lon="2.77799">
        <ele>64.07</ele>
        <time>2018-08-25T16:32:46Z</time>
      </trkpt>
      <trkpt lat="50.29066" lon="2.77796">
        <ele>63.58</ele>
        <time>2018-08-25T16:33:16Z</time>
      </trkpt>
      <trkpt lat="50.29065" lon="2.77798">
        <ele>63.58</ele>
        <time>2018-08-25T16:33:48Z</time>
      </trkpt>
      <trkpt lat="50.29063" lon="2.77797">
        <ele>64.07</ele>
        <time>2018-08-25T16:34:16Z</time>
      </trkpt>
      <trkpt lat="50.29062" lon="2.77798">
        <ele>63.58</ele>
        <time>2018-08-25T16:34:44Z</time>
      </trkpt>
      <trkpt lat="50.29063" lon="2.77798">
        <ele>63.58</ele>
        <time>2018-08-25T16:35:05Z</time>
      </trkpt>
      <trkpt lat="50.29064" lon="2.77798">
        <ele>63.58</ele>
        <time>2018-08-25T16:35:30Z</time>
      </trkpt>
      <trkpt lat="50.29065" lon="2.77795">
        <ele>63.58</ele>
        <time>2018-08-25T16:35:54Z</time>
      </trkpt>
      <trkpt lat="50.29068" lon="2.77799">
        <ele>64.07</ele>
        <time>2018-08-25T16:36:27Z</time>
      </trkpt>
      <trkpt lat="50.2907" lon="2.77798">
        <ele>64.07</ele>
        <time>2018-08-25T16:37:03Z</time>
      </trkpt>
      <trkpt lat="50.29071" lon="2.77802">
        <ele>64.07</ele>
        <time>2018-08-25T16:37:34Z</time>
      </trkpt>
      <trkpt lat="50.2907" lon="2.77801">
        <ele>64.55</ele>
        <time>2018-08-25T16:37:55Z</time>
      </trkpt>
      <trkpt lat="50.2907" lon="2.77801">
        <ele>64.55</ele>
        <time>2018-08-25T16:38:24Z</time>
      </trkpt>
      <trkpt lat="50.29068" lon="2.77797">
        <ele>65.03</ele>
        <time>2018-08-25T16:38:51Z</time>
      </trkpt>
      <trkpt lat="50.29065" lon="2.77797">
        <ele>65.99</ele>
        <time>2018-08-25T16:39:12Z</time>
      </trkpt>
      <trkpt lat="50.29066" lon="2.77798">
        <ele>66.47</ele>
        <time>2018-08-25T16:39:35Z</time>
      </trkpt>
      <trkpt lat="50.29065" lon="2.77798">
        <ele>66.47</ele>
        <time>2018-08-25T16:39:58Z</time>
      </trkpt>
      <trkpt lat="50.29067" lon="2.77796">
        <ele>66.47</ele>
        <time>2018-08-25T16:40:17Z</time>
      </trkpt>
      <trkpt lat="50.29063" lon="2.77791">
        <ele>66.95</ele>
        <time>2018-08-25T16:40:43Z</time>
      </trkpt>
      <trkpt lat="50.29064" lon="2.77797">
        <ele>66.95</ele>
        <time>2018-08-25T16:41:22Z</time>
      </trkpt>
      <trkpt lat="50.2906" lon="2.77799">
        <ele>67.43</ele>
        <time>2018-08-25T16:41:45Z</time>
      </trkpt>
      <trkpt lat="50.29064" lon="2.77795">
        <ele>67.43</ele>
        <time>2018-08-25T16:42:22Z</time>
      </trkpt>
      <trkpt lat="50.29066" lon="2.77798">
        <ele>67.91</ele>
        <time>2018-08-25T16:42:49Z</time>
      </trkpt>
      <trkpt lat="50.29061" lon="2.77794">
        <ele>67.91</ele>
        <time>2018-08-25T16:43:11Z</time>
      </trkpt>
      <trkpt lat="50.2906" lon="2.77795">
        <ele>68.39</ele>
        <time>2018-08-25T16:43:23Z</time>
      </trkpt>
      <trkpt lat="50.29063" lon="2.77804">
        <ele>67.91</ele>
        <time>2018-08-25T16:45:54Z</time>
      </trkpt>
      <trkpt lat="50.29063" lon="2.77796">
        <ele>67.43</ele>
        <time>2018-08-25T16:46:12Z</time>
      </trkpt>
      <trkpt lat="50.29065" lon="2.77795">
        <ele>66.95</ele>
        <time>2018-08-25T16:46:45Z</time>
      </trkpt>
      <trkpt lat="50.29062" lon="2.77795">
        <ele>66.95</ele>
        <time>2018-08-25T16:47:07Z</time>
      </trkpt>
      <trkpt lat="50.29073" lon="2.77801">
        <ele>66.95</ele>
        <time>2018-08-25T16:47:28Z</time>
      </trkpt>
      <trkpt lat="50.29069" lon="2.77795">
        <ele>67.43</ele>
        <time>2018-08-25T16:47:58Z</time>
      </trkpt>
      <trkpt lat="50.29068" lon="2.77799">
        <ele>67.91</ele>
        <time>2018-08-25T16:48:24Z</time>
      </trkpt>
      <trkpt lat="50.29066" lon="2.778">
        <ele>67.91</ele>
        <time>2018-08-25T16:48:51Z</time>
      </trkpt>
      <trkpt lat="50.29065" lon="2.77798">
        <ele>67.91</ele>
        <time>2018-08-25T16:49:20Z</time>
      </trkpt>
      <trkpt lat="50.29064" lon="2.77798">
        <ele>68.39</ele>
        <time>2018-08-25T16:49:49Z</time>
      </trkpt>
      <trkpt lat="50.29066" lon="2.778">
        <ele>68.39</ele>
        <time>2018-08-25T16:50:22Z</time>
      </trkpt>
      <trkpt lat="50.29066" lon="2.77801">
        <ele>68.87</ele>
        <time>2018-08-25T16:50:47Z</time>
      </trkpt>
      <trkpt lat="50.29065" lon="2.77799">
        <ele>68.87</ele>
        <time>2018-08-25T16:51:21Z</time>
      </trkpt>
      <trkpt lat="50.29063" lon="2.77798">
        <ele>70.31</ele>
        <time>2018-08-25T16:51:37Z</time>
      </trkpt>
      <trkpt lat="50.29067" lon="2.77797">
        <ele>69.35</ele>
        <time>2018-08-25T16:51:51Z</time>
      </trkpt>
      <trkpt lat="50.29072" lon="2.77781">
        <ele>69.35</ele>
        <time>2018-08-25T16:52:11Z</time>
      </trkpt>
      <trkpt lat="50.2908" lon="2.77755">
        <ele>68.87</ele>
        <time>2018-08-25T16:52:31Z</time>
      </trkpt>
      <trkpt lat="50.291" lon="2.77729">
        <ele>69.35</ele>
        <time>2018-08-25T16:52:49Z</time>
      </trkpt>
      <trkpt lat="50.29098" lon="2.7771">
        <ele>68.39</ele>
        <time>2018-08-25T16:53:08Z</time>
      </trkpt>
      <trkpt lat="50.29095" lon="2.77706">
        <ele>69.83</ele>
        <time>2018-08-25T16:53:11Z</time>
      </trkpt>
      <trkpt lat="50.29091" lon="2.77693">
        <ele>68.39</ele>
        <time>2018-08-25T16:53:17Z</time>
      </trkpt>
      <trkpt lat="50.29088" lon="2.77681">
        <ele>69.35</ele>
        <time>2018-08-25T16:53:25Z</time>
      </trkpt>
      <trkpt lat="50.29076" lon="2.77665">
        <ele>67.91</ele>
        <time>2018-08-25T16:53:49Z</time>
      </trkpt>
      <trkpt lat="50.29073" lon="2.77659">
        <ele>67.91</ele>
        <time>2018-08-25T16:53:54Z</time>
      </trkpt>
      <trkpt lat="50.29071" lon="2.77654">
        <ele>67.91</ele>
        <time>2018-08-25T16:53:57Z</time>
      </trkpt>
      <trkpt lat="50.29055" lon="2.77639">
        <ele>67.91</ele>
        <time>2018-08-25T16:54:14Z</time>
      </trkpt>
      <trkpt lat="50.29046" lon="2.77627">
        <ele>67.91</ele>
        <time>2018-08-25T16:54:26Z</time>
      </trkpt>
      <trkpt lat="50.29047" lon="2.77603">
        <ele>67.43</ele>
        <time>2018-08-25T16:54:39Z</time>
      </trkpt>
      <trkpt lat="50.29058" lon="2.77581">
        <ele>67.43</ele>
        <time>2018-08-25T16:54:55Z</time>
      </trkpt>
      <trkpt lat="50.29058" lon="2.77572">
        <ele>67.43</ele>
        <time>2018-08-25T16:55:13Z</time>
      </trkpt>
      <trkpt lat="50.29059" lon="2.77572">
        <ele>67.43</ele>
        <time>2018-08-25T16:55:27Z</time>
      </trkpt>
      <trkpt lat="50.29059" lon="2.77571">
        <ele>67.43</ele>
        <time>2018-08-25T16:55:47Z</time>
      </trkpt>
      <trkpt lat="50.29058" lon="2.77567">
        <ele>67.43</ele>
        <time>2018-08-25T16:56:02Z</time>
      </trkpt>
      <trkpt lat="50.29055" lon="2.77567">
        <ele>66.47</ele>
        <time>2018-08-25T16:56:30Z</time>
      </trkpt>
      <trkpt lat="50.29049" lon="2.77561">
        <ele>67.43</ele>
        <time>2018-08-25T16:56:58Z</time>
      </trkpt>
      <trkpt lat="50.2905" lon="2.7756">
        <ele>67.43</ele>
        <time>2018-08-25T16:57:21Z</time>
      </trkpt>
      <trkpt lat="50.29052" lon="2.77566">
        <ele>66.47</ele>
        <time>2018-08-25T16:57:48Z</time>
      </trkpt>
      <trkpt lat="50.29061" lon="2.77571">
        <ele>66.47</ele>
        <time>2018-08-25T16:58:11Z</time>
      </trkpt>
      <trkpt lat="50.29062" lon="2.77574">
        <ele>66.47</ele>
        <time>2018-08-25T16:58:24Z</time>
      </trkpt>
      <trkpt lat="50.29064" lon="2.7757">
        <ele>66.47</ele>
        <time>2018-08-25T16:58:45Z</time>
      </trkpt>
      <trkpt lat="50.29057" lon="2.77563">
        <ele>66.47</ele>
        <time>2018-08-25T16:59:12Z</time>
      </trkpt>
      <trkpt lat="50.29055" lon="2.77563">
        <ele>66.47</ele>
        <time>2018-08-25T16:59:38Z</time>
      </trkpt>
      <trkpt lat="50.29049" lon="2.77559">
        <ele>66.47</ele>
        <time>2018-08-25T17:00:01Z</time>
      </trkpt>
      <trkpt lat="50.29052" lon="2.77559">
        <ele>66.47</ele>
        <time>2018-08-25T17:00:26Z</time>
      </trkpt>
      <trkpt lat="50.29076" lon="2.77585">
        <ele>66.47</ele>
        <time>2018-08-25T17:00:48Z</time>
      </trkpt>
      <trkpt lat="50.29054" lon="2.77561">
        <ele>66.47</ele>
        <time>2018-08-25T17:01:10Z</time>
      </trkpt>
      <trkpt lat="50.29052" lon="2.77563">
        <ele>66.47</ele>
        <time>2018-08-25T17:01:33Z</time>
      </trkpt>
      <trkpt lat="50.29053" lon="2.77566">
        <ele>66.47</ele>
        <time>2018-08-25T17:01:53Z</time>
      </trkpt>
      <trkpt lat="50.29055" lon="2.77561">
        <ele>66.47</ele>
        <time>2018-08-25T17:02:14Z</time>
      </trkpt>
      <trkpt lat="50.29051" lon="2.77557">
        <ele>66.95</ele>
        <time>2018-08-25T17:02:38Z</time>
      </trkpt>
      <trkpt lat="50.29054" lon="2.77559">
        <ele>66.95</ele>
        <time>2018-08-25T17:03:00Z</time>
      </trkpt>
      <trkpt lat="50.29053" lon="2.77559">
        <ele>66.95</ele>
        <time>2018-08-25T17:03:24Z</time>
      </trkpt>
      <trkpt lat="50.29053" lon="2.77559">
        <ele>66.95</ele>
        <time>2018-08-25T17:03:39Z</time>
      </trkpt>
      <trkpt lat="50.29054" lon="2.77558">
        <ele>66.95</ele>
        <time>2018-08-25T17:03:59Z</time>
      </trkpt>
      <trkpt lat="50.29052" lon="2.77559">
        <ele>67.43</ele>
        <time>2018-08-25T17:04:24Z</time>
      </trkpt>
      <trkpt lat="50.29056" lon="2.77552">
        <ele>67.43</ele>
        <time>2018-08-25T17:04:38Z</time>
      </trkpt>
      <trkpt lat="50.29055" lon="2.77554">
        <ele>67.43</ele>
        <time>2018-08-25T17:04:55Z</time>
      </trkpt>
      <trkpt lat="50.29057" lon="2.77556">
        <ele>67.43</ele>
        <time>2018-08-25T17:05:18Z</time>
      </trkpt>
      <trkpt lat="50.29059" lon="2.77555">
        <ele>67.43</ele>
        <time>2018-08-25T17:05:42Z</time>
      </trkpt>
      <trkpt lat="50.29059" lon="2.77554">
        <ele>67.43</ele>
        <time>2018-08-25T17:06:04Z</time>
      </trkpt>
      <trkpt lat="50.29052" lon="2.7759">
        <ele>67.43</ele>
        <time>2018-08-25T17:06:19Z</time>
      </trkpt>
      <trkpt lat="50.29034" lon="2.77593">
        <ele>67.43</ele>
        <time>2018-08-25T17:06:36Z</time>
      </trkpt>
      <trkpt lat="50.29033" lon="2.77593">
        <ele>67.43</ele>
        <time>2018-08-25T17:06:37Z</time>
      </trkpt>
      <trkpt lat="50.29021" lon="2.77581">
        <ele>67.43</ele>
        <time>2018-08-25T17:06:52Z</time>
      </trkpt>
      <trkpt lat="50.29016" lon="2.77584">
        <ele>67.91</ele>
        <time>2018-08-25T17:07:12Z</time>
      </trkpt>
      <trkpt lat="50.28994" lon="2.77563">
        <ele>67.43</ele>
        <time>2018-08-25T17:07:32Z</time>
      </trkpt>
      <trkpt lat="50.28985" lon="2.77552">
        <ele>66.95</ele>
        <time>2018-08-25T17:07:41Z</time>
      </trkpt>
      <trkpt lat="50.28963" lon="2.77542">
        <ele>66.47</ele>
        <time>2018-08-25T17:07:55Z</time>
      </trkpt>
      <trkpt lat="50.28954" lon="2.77528">
        <ele>66.47</ele>
        <time>2018-08-25T17:08:10Z</time>
      </trkpt>
      <trkpt lat="50.28952" lon="2.77521">
        <ele>66.47</ele>
        <time>2018-08-25T17:08:12Z</time>
      </trkpt>
      <trkpt lat="50.28959" lon="2.77489">
        <ele>65.99</ele>
        <time>2018-08-25T17:08:26Z</time>
      </trkpt>
      <trkpt lat="50.28958" lon="2.77488">
        <ele>65.99</ele>
        <time>2018-08-25T17:08:28Z</time>
      </trkpt>
      <trkpt lat="50.28948" lon="2.77486">
        <ele>65.99</ele>
        <time>2018-08-25T17:08:37Z</time>
      </trkpt>
      <trkpt lat="50.28935" lon="2.77487">
        <ele>65.99</ele>
        <time>2018-08-25T17:08:47Z</time>
      </trkpt>
      <trkpt lat="50.28927" lon="2.77479">
        <ele>65.51</ele>
        <time>2018-08-25T17:08:55Z</time>
      </trkpt>
      <trkpt lat="50.28923" lon="2.77477">
        <ele>65.03</ele>
        <time>2018-08-25T17:08:59Z</time>
      </trkpt>
      <trkpt lat="50.28913" lon="2.77455">
        <ele>65.03</ele>
        <time>2018-08-25T17:09:14Z</time>
      </trkpt>
      <trkpt lat="50.28888" lon="2.77448">
        <ele>64.55</ele>
        <time>2018-08-25T17:09:31Z</time>
      </trkpt>
      <trkpt lat="50.28864" lon="2.77437">
        <ele>64.55</ele>
        <time>2018-08-25T17:09:50Z</time>
      </trkpt>
      <trkpt lat="50.28849" lon="2.77424">
        <ele>64.55</ele>
        <time>2018-08-25T17:10:07Z</time>
      </trkpt>
      <trkpt lat="50.28842" lon="2.7742">
        <ele>64.55</ele>
        <time>2018-08-25T17:10:14Z</time>
      </trkpt>
      <trkpt lat="50.28835" lon="2.77404">
        <ele>64.07</ele>
        <time>2018-08-25T17:10:27Z</time>
      </trkpt>
      <trkpt lat="50.28837" lon="2.77391">
        <ele>63.1</ele>
        <time>2018-08-25T17:10:38Z</time>
      </trkpt>
      <trkpt lat="50.28852" lon="2.77365">
        <ele>63.1</ele>
        <time>2018-08-25T17:10:55Z</time>
      </trkpt>
      <trkpt lat="50.28859" lon="2.77343">
        <ele>63.1</ele>
        <time>2018-08-25T17:11:09Z</time>
      </trkpt>
      <trkpt lat="50.28862" lon="2.77331">
        <ele>63.1</ele>
        <time>2018-08-25T17:11:16Z</time>
      </trkpt>
      <trkpt lat="50.28868" lon="2.77312">
        <ele>63.1</ele>
        <time>2018-08-25T17:11:28Z</time>
      </trkpt>
      <trkpt lat="50.28877" lon="2.77288">
        <ele>63.58</ele>
        <time>2018-08-25T17:11:43Z</time>
      </trkpt>
      <trkpt lat="50.28881" lon="2.77271">
        <ele>63.1</ele>
        <time>2018-08-25T17:11:56Z</time>
      </trkpt>
      <trkpt lat="50.28888" lon="2.77249">
        <ele>63.1</ele>
        <time>2018-08-25T17:12:08Z</time>
      </trkpt>
      <trkpt lat="50.289" lon="2.77224">
        <ele>63.1</ele>
        <time>2018-08-25T17:12:25Z</time>
      </trkpt>
      <trkpt lat="50.28907" lon="2.77207">
        <ele>63.1</ele>
        <time>2018-08-25T17:12:35Z</time>
      </trkpt>
      <trkpt lat="50.28906" lon="2.77194">
        <ele>63.1</ele>
        <time>2018-08-25T17:12:42Z</time>
      </trkpt>
      <trkpt lat="50.28903" lon="2.77191">
        <ele>63.1</ele>
        <time>2018-08-25T17:12:44Z</time>
      </trkpt>
      <trkpt lat="50.28883" lon="2.77165">
        <ele>61.66</ele>
        <time>2018-08-25T17:12:59Z</time>
      </trkpt>
      <trkpt lat="50.28865" lon="2.77147">
        <ele>61.66</ele>
        <time>2018-08-25T17:13:15Z</time>
      </trkpt>
      <trkpt lat="50.28863" lon="2.77146">
        <ele>61.66</ele>
        <time>2018-08-25T17:13:16Z</time>
      </trkpt>
      <trkpt lat="50.28845" lon="2.77131">
        <ele>61.66</ele>
        <time>2018-08-25T17:13:34Z</time>
      </trkpt>
      <trkpt lat="50.28831" lon="2.77117">
        <ele>61.66</ele>
        <time>2018-08-25T17:13:46Z</time>
      </trkpt>
      <trkpt lat="50.28816" lon="2.77112">
        <ele>60.7</ele>
        <time>2018-08-25T17:14:01Z</time>
      </trkpt>
      <trkpt lat="50.28804" lon="2.77107">
        <ele>61.18</ele>
        <time>2018-08-25T17:14:12Z</time>
      </trkpt>
      <trkpt lat="50.28802" lon="2.77103">
        <ele>61.18</ele>
        <time>2018-08-25T17:14:15Z</time>
      </trkpt>
      <trkpt lat="50.28804" lon="2.77095">
        <ele>61.18</ele>
        <time>2018-08-25T17:14:20Z</time>
      </trkpt>
      <trkpt lat="50.28797" lon="2.77074">
        <ele>61.18</ele>
        <time>2018-08-25T17:14:34Z</time>
      </trkpt>
      <trkpt lat="50.28795" lon="2.77072">
        <ele>61.18</ele>
        <time>2018-08-25T17:14:37Z</time>
      </trkpt>
      <trkpt lat="50.28782" lon="2.77064">
        <ele>61.18</ele>
        <time>2018-08-25T17:14:54Z</time>
      </trkpt>
      <trkpt lat="50.28777" lon="2.77057">
        <ele>61.18</ele>
        <time>2018-08-25T17:15:01Z</time>
      </trkpt>
      <trkpt lat="50.28768" lon="2.77054">
        <ele>61.18</ele>
        <time>2018-08-25T17:15:08Z</time>
      </trkpt>
      <trkpt lat="50.28752" lon="2.77056">
        <ele>61.18</ele>
        <time>2018-08-25T17:15:16Z</time>
      </trkpt>
      <trkpt lat="50.28748" lon="2.77053">
        <ele>61.18</ele>
        <time>2018-08-25T17:15:20Z</time>
      </trkpt>
      <trkpt lat="50.28743" lon="2.7705">
        <ele>61.18</ele>
        <time>2018-08-25T17:15:23Z</time>
      </trkpt>
      <trkpt lat="50.28729" lon="2.77028">
        <ele>62.14</ele>
        <time>2018-08-25T17:15:40Z</time>
      </trkpt>
      <trkpt lat="50.28729" lon="2.77027">
        <ele>62.14</ele>
        <time>2018-08-25T17:15:41Z</time>
      </trkpt>
      <trkpt lat="50.28724" lon="2.77018">
        <ele>62.62</ele>
        <time>2018-08-25T17:15:48Z</time>
      </trkpt>
      <trkpt lat="50.28713" lon="2.7699">
        <ele>62.62</ele>
        <time>2018-08-25T17:16:06Z</time>
      </trkpt>
      <trkpt lat="50.28702" lon="2.76975">
        <ele>62.62</ele>
        <time>2018-08-25T17:16:21Z</time>
      </trkpt>
      <trkpt lat="50.28697" lon="2.76969">
        <ele>62.62</ele>
        <time>2018-08-25T17:16:27Z</time>
      </trkpt>
      <trkpt lat="50.28689" lon="2.76957">
        <ele>62.14</ele>
        <time>2018-08-25T17:16:37Z</time>
      </trkpt>
      <trkpt lat="50.28695" lon="2.76924">
        <ele>62.62</ele>
        <time>2018-08-25T17:16:51Z</time>
      </trkpt>
      <trkpt lat="50.28688" lon="2.76909">
        <ele>62.62</ele>
        <time>2018-08-25T17:17:02Z</time>
      </trkpt>
      <trkpt lat="50.28684" lon="2.76902">
        <ele>62.62</ele>
        <time>2018-08-25T17:17:07Z</time>
      </trkpt>
      <trkpt lat="50.28683" lon="2.76898">
        <ele>62.62</ele>
        <time>2018-08-25T17:17:10Z</time>
      </trkpt>
      <trkpt lat="50.2868" lon="2.76892">
        <ele>62.62</ele>
        <time>2018-08-25T17:17:15Z</time>
      </trkpt>
      <trkpt lat="50.28667" lon="2.7687">
        <ele>62.62</ele>
        <time>2018-08-25T17:17:32Z</time>
      </trkpt>
      <trkpt lat="50.28666" lon="2.76869">
        <ele>62.62</ele>
        <time>2018-08-25T17:17:33Z</time>
      </trkpt>
      <trkpt lat="50.28652" lon="2.76845">
        <ele>63.1</ele>
        <time>2018-08-25T17:17:50Z</time>
      </trkpt>
      <trkpt lat="50.28642" lon="2.76822">
        <ele>62.62</ele>
        <time>2018-08-25T17:18:06Z</time>
      </trkpt>
      <trkpt lat="50.28639" lon="2.76813">
        <ele>62.62</ele>
        <time>2018-08-25T17:18:12Z</time>
      </trkpt>
      <trkpt lat="50.28628" lon="2.76792">
        <ele>62.62</ele>
        <time>2018-08-25T17:18:28Z</time>
      </trkpt>
      <trkpt lat="50.28614" lon="2.76767">
        <ele>62.62</ele>
        <time>2018-08-25T17:18:46Z</time>
      </trkpt>
      <trkpt lat="50.28612" lon="2.76766">
        <ele>62.62</ele>
        <time>2018-08-25T17:18:48Z</time>
      </trkpt>
      <trkpt lat="50.28607" lon="2.76756">
        <ele>61.18</ele>
        <time>2018-08-25T17:18:58Z</time>
      </trkpt>
      <trkpt lat="50.28601" lon="2.76747">
        <ele>61.18</ele>
        <time>2018-08-25T17:19:15Z</time>
      </trkpt>
      <trkpt lat="50.28591" lon="2.76749">
        <ele>61.18</ele>
        <time>2018-08-25T17:19:28Z</time>
      </trkpt>
      <trkpt lat="50.28581" lon="2.76756">
        <ele>61.18</ele>
        <time>2018-08-25T17:19:41Z</time>
      </trkpt>
      <trkpt lat="50.2857" lon="2.76754">
        <ele>61.18</ele>
        <time>2018-08-25T17:19:56Z</time>
      </trkpt>
      <trkpt lat="50.28564" lon="2.76758">
        <ele>62.62</ele>
        <time>2018-08-25T17:20:01Z</time>
      </trkpt>
      <trkpt lat="50.2855" lon="2.76742">
        <ele>62.62</ele>
        <time>2018-08-25T17:20:19Z</time>
      </trkpt>
      <trkpt lat="50.28536" lon="2.76711">
        <ele>62.14</ele>
        <time>2018-08-25T17:20:42Z</time>
      </trkpt>
      <trkpt lat="50.28527" lon="2.76683">
        <ele>62.14</ele>
        <time>2018-08-25T17:21:02Z</time>
      </trkpt>
      <trkpt lat="50.28509" lon="2.76662">
        <ele>62.62</ele>
        <time>2018-08-25T17:21:21Z</time>
      </trkpt>
      <trkpt lat="50.28499" lon="2.76635">
        <ele>62.62</ele>
        <time>2018-08-25T17:21:41Z</time>
      </trkpt>
      <trkpt lat="50.28497" lon="2.76625">
        <ele>62.62</ele>
        <time>2018-08-25T17:21:46Z</time>
      </trkpt>
      <trkpt lat="50.28484" lon="2.76596">
        <ele>63.1</ele>
        <time>2018-08-25T17:22:05Z</time>
      </trkpt>
      <trkpt lat="50.28484" lon="2.76592">
        <ele>63.1</ele>
        <time>2018-08-25T17:22:08Z</time>
      </trkpt>
      <trkpt lat="50.28476" lon="2.76569">
        <ele>62.62</ele>
        <time>2018-08-25T17:22:23Z</time>
      </trkpt>
      <trkpt lat="50.28468" lon="2.76542">
        <ele>63.1</ele>
        <time>2018-08-25T17:22:39Z</time>
      </trkpt>
      <trkpt lat="50.28463" lon="2.76519">
        <ele>63.58</ele>
        <time>2018-08-25T17:22:55Z</time>
      </trkpt>
      <trkpt lat="50.2846" lon="2.76494">
        <ele>64.07</ele>
        <time>2018-08-25T17:23:09Z</time>
      </trkpt>
      <trkpt lat="50.28458" lon="2.76468">
        <ele>64.07</ele>
        <time>2018-08-25T17:23:23Z</time>
      </trkpt>
      <trkpt lat="50.28458" lon="2.76441">
        <ele>63.58</ele>
        <time>2018-08-25T17:23:39Z</time>
      </trkpt>
      <trkpt lat="50.28459" lon="2.76426">
        <ele>64.07</ele>
        <time>2018-08-25T17:23:48Z</time>
      </trkpt>
      <trkpt lat="50.28458" lon="2.76417">
        <ele>64.07</ele>
        <time>2018-08-25T17:23:53Z</time>
      </trkpt>
      <trkpt lat="50.28459" lon="2.76411">
        <ele>64.07</ele>
        <time>2018-08-25T17:23:57Z</time>
      </trkpt>
      <trkpt lat="50.28461" lon="2.76388">
        <ele>64.55</ele>
        <time>2018-08-25T17:24:12Z</time>
      </trkpt>
      <trkpt lat="50.28463" lon="2.76378">
        <ele>64.55</ele>
        <time>2018-08-25T17:24:19Z</time>
      </trkpt>
      <trkpt lat="50.28467" lon="2.76366">
        <ele>65.03</ele>
        <time>2018-08-25T17:24:27Z</time>
      </trkpt>
      <trkpt lat="50.28472" lon="2.7635">
        <ele>65.03</ele>
        <time>2018-08-25T17:24:38Z</time>
      </trkpt>
      <trkpt lat="50.28479" lon="2.76327">
        <ele>65.51</ele>
        <time>2018-08-25T17:24:54Z</time>
      </trkpt>
      <trkpt lat="50.28487" lon="2.76309">
        <ele>65.99</ele>
        <time>2018-08-25T17:25:06Z</time>
      </trkpt>
      <trkpt lat="50.28489" lon="2.76305">
        <ele>65.99</ele>
        <time>2018-08-25T17:25:09Z</time>
      </trkpt>
      <trkpt lat="50.28501" lon="2.76285">
        <ele>65.99</ele>
        <time>2018-08-25T17:25:24Z</time>
      </trkpt>
      <trkpt lat="50.28504" lon="2.76282">
        <ele>64.55</ele>
        <time>2018-08-25T17:25:27Z</time>
      </trkpt>
      <trkpt lat="50.28512" lon="2.7626">
        <ele>64.55</ele>
        <time>2018-08-25T17:25:43Z</time>
      </trkpt>
      <trkpt lat="50.28524" lon="2.76237">
        <ele>64.55</ele>
        <time>2018-08-25T17:25:58Z</time>
      </trkpt>
      <trkpt lat="50.28527" lon="2.76232">
        <ele>63.58</ele>
        <time>2018-08-25T17:26:02Z</time>
      </trkpt>
      <trkpt lat="50.28536" lon="2.76222">
        <ele>63.58</ele>
        <time>2018-08-25T17:26:11Z</time>
      </trkpt>
      <trkpt lat="50.28555" lon="2.76202">
        <ele>63.1</ele>
        <time>2018-08-25T17:26:30Z</time>
      </trkpt>
      <trkpt lat="50.28571" lon="2.76188">
        <ele>62.62</ele>
        <time>2018-08-25T17:26:44Z</time>
      </trkpt>
      <trkpt lat="50.28573" lon="2.76186">
        <ele>62.14</ele>
        <time>2018-08-25T17:26:47Z</time>
      </trkpt>
      <trkpt lat="50.28585" lon="2.76175">
        <ele>61.66</ele>
        <time>2018-08-25T17:26:58Z</time>
      </trkpt>
      <trkpt lat="50.28603" lon="2.76163">
        <ele>61.18</ele>
        <time>2018-08-25T17:27:16Z</time>
      </trkpt>
      <trkpt lat="50.28621" lon="2.7615">
        <ele>60.22</ele>
        <time>2018-08-25T17:27:35Z</time>
      </trkpt>
      <trkpt lat="50.28638" lon="2.76138">
        <ele>60.22</ele>
        <time>2018-08-25T17:27:52Z</time>
      </trkpt>
      <trkpt lat="50.28655" lon="2.7613">
        <ele>59.74</ele>
        <time>2018-08-25T17:28:08Z</time>
      </trkpt>
      <trkpt lat="50.28656" lon="2.76129">
        <ele>59.74</ele>
        <time>2018-08-25T17:28:09Z</time>
      </trkpt>
      <trkpt lat="50.28675" lon="2.76124">
        <ele>59.74</ele>
        <time>2018-08-25T17:28:27Z</time>
      </trkpt>
      <trkpt lat="50.28682" lon="2.76126">
        <ele>59.74</ele>
        <time>2018-08-25T17:28:34Z</time>
      </trkpt>
      <trkpt lat="50.28683" lon="2.7613">
        <ele>59.74</ele>
        <time>2018-08-25T17:28:37Z</time>
      </trkpt>
      <trkpt lat="50.28693" lon="2.76143">
        <ele>59.74</ele>
        <time>2018-08-25T17:28:49Z</time>
      </trkpt>
      <trkpt lat="50.28711" lon="2.76153">
        <ele>59.74</ele>
        <time>2018-08-25T17:29:06Z</time>
      </trkpt>
      <trkpt lat="50.28727" lon="2.76164">
        <ele>59.26</ele>
        <time>2018-08-25T17:29:22Z</time>
      </trkpt>
      <trkpt lat="50.28734" lon="2.76165">
        <ele>59.26</ele>
        <time>2018-08-25T17:29:34Z</time>
      </trkpt>
      <trkpt lat="50.2874" lon="2.76163">
        <ele>59.26</ele>
        <time>2018-08-25T17:29:46Z</time>
      </trkpt>
      <trkpt lat="50.28741" lon="2.76166">
        <ele>58.78</ele>
        <time>2018-08-25T17:29:56Z</time>
      </trkpt>
    </trkseg>
  </trk>
</gpx>